ftp/pub/mcmurdo/building189/2007/March/070324.txt
3/24/07
Time Wind Dir Wind Spd Wind Gust Hum In Temp In Temp Raw Barom Wind Chill
° kts kts % °C °C mb °C
0:00 340 2 3 1 22.3 -11.8 990.22 -13.5
0:01 337 3 3 1 22.3 -11.8 990.19 -14.9
0:02 355 4 5 1 22.3 -11.6 990.15 -16.3
0:03 338 2 4 1 22.3 -11.6 990.26 -13.3
0:04 347 3 5 1 22.3 -11.6 990.22 -14.6
0:05 358 3 5 1 22.3 -11.6 990.15 -14.6
0:06 346 2 5 1 22.3 -11.4 990.15 -13.2
0:07 356 3 7 1 22.3 -11.6 990.19 -14.6
0:08 2 4 6 1 22.3 -11.8 990.22 -16.6
0:09 359 6 6 1 22.3 -11.8 990.19 -17.9
0:10 358 3 6 1 22.3 -11.6 990.15 -15.5
0:11 344 3 4 1 22.3 -11.9 990.22 -14.9
0:12 356 6 6 1 22.3 -11.6 990.19 -17.6
0:13 353 3 6 1 22.3 -11.5 990.12 -14.5
0:14 353 3 5 1 22.3 -11.6 990.15 -14.6
0:15 355 4 4 1 22.3 -11.7 990.19 -16.4
0:16 356 3 5 1 22.3 -11.6 990.19 -15.5
0:17 358 3 5 1 22.3 -11.4 990.15 -15.3
0:18 359 3 5 1 22.3 -11.6 990.12 -14.6
0:19 359 5 7 1 22.3 -11.8 990.15 -17.2
0:20 354 3 5 1 22.3 -11.5 990.15 -15.5
0:21 1 5 5 1 22.3 -11.6 990.19 -17.0
0:22 357 3 7 1 22.3 -11.5 990.12 -15.5
0:23 357 3 5 1 22.3 -11.3 990.05 -14.2
0:24 351 3 4 1 22.3 -11.4 990.09 -14.4
0:25 357 3 5 1 22.3 -11.8 990.19 -15.8
0:26 352 5 7 1 22.3 -11.2 990.15 -16.6
0:27 358 5 7 1 22.3 -11.4 990.12 -16.8
0:28 358 3 5 1 22.3 -11.3 990.19 -14.3
0:29 352 5 5 1 22.3 -11.3 990.15 -16.7
0:30 353 6 7 1 22.3 -11.7 990.19 -17.7
0:31 353 4 6 1 22.3 -11.4 990.12 -16.2
0:32 359 3 7 1 22.3 -11.7 990.19 -14.7
0:33 358 5 6 1 22.3 -11.5 990.15 -16.9
0:34 354 5 7 1 22.3 -11.5 990.19 -16.9
0:35 354 3 5 1 22.3 -11.5 990.12 -15.5
0:36 351 4 6 1 22.3 -11.7 990.15 -16.4
0:37 358 3 6 1 22.3 -11.6 990.15 -14.6
0:38 356 3 4 1 22.3 -11.7 990.12 -14.8
0:39 354 6 7 1 22.3 -11.6 990.15 -17.6
0:40 357 3 6 1 22.3 -11.6 990.12 -14.6
0:41 0 4 6 1 22.3 -11.4 990.12 -16.1
0:42 355 3 6 1 22.3 -11.6 990.15 -15.6
0:43 350 7 7 1 22.3 -11.2 990.02 -17.6
0:44 355 7 8 1 22.3 -11.4 990.05 -17.8
0:45 358 4 7 1 22.3 -11.5 990.12 -16.2
0:46 354 3 5 1 22.4 -11.7 990.02 -14.7
0:47 0 3 4 1 22.4 -11.4 990.05 -15.3
0:48 348 4 6 1 22.4 -11.5 990.09 -16.2
0:49 352 3 6 1 22.4 -11.8 990.02 -15.8
0:50 0 3 4 1 22.4 -11.4 990.05 -14.4
0:51 354 3 3 1 22.3 -11.3 990.02 -14.3
0:52 351 2 4 1 22.3 -11.3 990.02 -13.0
0:53 353 4 5 1 22.3 -11.7 990.02 -16.5
0:54 358 4 5 1 22.4 -11.6 989.88 -16.4
0:55 0 3 4 1 22.3 -11.6 989.98 -14.6
0:56 359 4 4 1 22.3 -11.9 990.02 -16.7
0:57 0 3 5 1 22.3 -11.4 989.92 -15.4
0:58 359 5 5 1 22.3 -11.4 989.95 -16.8
0:59 0 2 5 1 22.4 -11.5 990.02 -13.2
1:00 353 3 5 1 22.4 -11.8 989.98 -14.9
1:01 0 1 3 1 22.4 -11.7 990.09 -11.7
1:02 0 1 3 1 22.4 -11.7 990.02 -11.7
1:03 0 2 2 1 22.4 -11.5 989.98 -13.2
1:04 0 1 3 1 22.4 -11.4 990.05 -11.4
1:05 0 1 3 1 22.4 -11.7 989.98 -11.7
1:06 351 3 3 1 22.4 -11.7 989.95 -14.7
1:07 344 3 3 1 22.4 -11.7 989.92 -15.7
1:08 340 3 4 1 22.4 -11.9 989.95 -14.9
1:09 341 1 3 1 22.4 -12.1 989.95 -12.1
1:10 341 1 3 1 22.4 -11.9 989.92 -11.9
1:11 337 1 2 1 22.4 -11.9 990.02 -11.9
1:12 338 0 2 1 22.4 -12.1 989.95 -12.1
1:13 340 0 1 1 22.4 -11.8 990.05 -11.8
1:14 338 1 2 1 22.4 -11.9 989.98 -11.9
1:15 355 2 3 1 22.4 -11.9 990.02 -13.6
1:16 347 2 4 1 22.4 -12.0 989.95 -13.8
1:17 342 3 4 1 22.3 -12.1 990.02 -15.1
1:18 341 2 3 1 22.4 -11.7 990.02 -13.4
1:19 338 2 3 1 22.4 -11.7 989.98 -13.4
1:20 338 0 3 1 22.3 -11.6 989.95 -11.6
1:21 338 1 2 1 22.4 -11.8 990.02 -11.8
1:22 339 3 4 1 22.4 -11.6 990.02 -14.6
1:23 338 0 3 1 22.4 -12.2 989.98 -12.2
1:24 338 1 1 1 22.3 -11.7 989.98 -11.7
1:25 338 1 2 1 22.3 -11.7 990.02 -11.7
1:26 338 0 1 1 22.3 -12.4 990.02 -12.4
1:27 338 0 2 1 22.3 -12.1 989.98 -12.1
1:28 0 1 4 1 22.3 -12.2 989.95 -12.2
1:29 0 1 2 1 22.3 -11.8 989.98 -11.8
1:30 0 0 1 1 22.3 -11.9 989.98 -11.9
1:31 358 3 3 1 22.3 -11.9 989.95 -14.9
1:32 358 3 4 1 22.3 -12.2 990.02 -15.3
1:33 352 3 4 1 22.3 -12.1 990.02 -15.2
1:34 339 3 5 1 22.3 -11.7 990.05 -14.7
1:35 346 2 4 1 22.3 -12.0 990.05 -13.8
1:36 358 1 2 1 22.3 -11.8 990.09 -11.8
1:37 358 0 2 1 22.3 -12.1 990.09 -12.1
1:38 358 0 0 1 22.3 -12.2 990.02 -12.2
1:39 358 0 0 1 22.3 -12.3 990.09 -12.3
1:40 358 1 1 1 22.3 -12.1 990.05 -12.1
1:41 358 0 2 1 22.3 -12.1 990.09 -12.1
1:42 358 0 1 1 22.3 -12.2 990.05 -12.2
1:43 358 1 2 1 22.4 -12.1 990.09 -12.1
1:44 358 1 3 1 22.4 -12.5 990.05 -12.5
1:45 358 3 3 1 22.3 -12.2 990.05 -15.3
1:46 358 0 3 1 22.4 -12.5 990.12 -12.5
1:47 358 3 3 1 22.3 -12.2 990.05 -15.3
1:48 358 1 3 1 22.3 -12.3 990.09 -12.3
1:49 358 0 1 1 22.3 -12.7 990.05 -12.7
1:50 358 2 2 1 22.3 -12.7 990.15 -14.6
1:51 357 1 3 1 22.3 -12.6 990.02 -12.6
1:52 357 3 3 1 22.3 -12.6 990.09 -15.7
1:53 357 0 3 1 22.3 -12.4 990.05 -12.4
1:54 357 2 3 1 22.3 -11.9 990.05 -13.7
1:55 357 3 4 1 22.3 -12.0 990.02 -16.0
1:56 354 2 4 1 22.3 -12.2 990.09 -14.0
1:57 352 6 6 1 22.3 -11.8 989.98 -17.8
1:58 343 3 8 1 22.3 -11.7 990.02 -15.7
1:59 339 9 9 1 22.3 -11.7 989.95 -19.1
2:00 345 6 9 1 22.3 -11.8 989.98 -17.8
2:01 339 3 6 1 22.3 -11.4 989.95 -15.4
2:02 352 4 6 1 22.3 -11.7 989.92 -16.4
2:03 353 5 7 1 22.3 -11.7 989.92 -17.1
2:04 2 3 5 1 22.3 -11.7 989.85 -15.7
2:05 347 3 6 1 22.3 -11.4 989.85 -14.4
2:06 348 3 5 1 22.3 -11.7 989.82 -15.7
2:07 343 3 6 1 22.3 -11.7 989.82 -15.7
2:08 356 3 5 1 22.3 -11.7 989.78 -14.8
2:09 336 3 4 1 22.3 -11.7 989.88 -15.7
2:10 344 2 4 1 22.3 -11.9 989.85 -13.7
2:11 344 0 2 1 22.3 -11.7 989.75 -11.7
2:12 344 0 1 1 22.3 -11.9 989.82 -11.9
2:13 344 1 1 1 22.3 -12.1 989.85 -12.1
2:14 344 1 1 1 22.3 -12.4 989.71 -12.4
2:15 344 0 1 1 22.3 -12.6 989.75 -12.6
2:16 344 1 1 1 22.3 -12.4 989.68 -12.4
2:17 344 0 1 1 22.3 -12.4 989.71 -12.4
2:18 344 0 1 1 22.3 -12.3 989.71 -12.3
2:19 344 0 0 1 22.3 -12.4 989.82 -12.4
2:20 344 0 1 1 22.3 -12.8 989.75 -12.8
2:21 344 0 0 1 22.3 -12.7 989.68 -12.7
2:22 344 0 1 1 22.3 -12.8 989.68 -12.8
2:23 344 0 0 1 22.3 -12.8 989.75 -12.8
2:24 344 0 0 1 22.3 -12.7 989.68 -12.7
2:25 344 0 0 1 22.3 -12.6 989.71 -12.6
2:26 344 0 2 1 22.3 -12.6 989.68 -12.6
2:27 344 0 1 1 22.3 -12.7 989.61 -12.7
2:28 344 0 2 1 22.3 -12.3 989.65 -12.3
2:29 344 0 0 1 22.3 -12.4 989.61 -12.4
2:30 344 1 2 1 22.3 -12.8 989.65 -12.8
2:31 344 1 1 1 22.3 -12.4 989.58 -12.4
2:32 345 2 2 1 22.3 -12.2 989.61 -14.0
2:33 345 0 2 1 22.3 -12.6 989.61 -12.6
2:34 345 0 0 1 22.3 -12.4 989.61 -12.4
2:35 345 0 1 1 22.3 -12.1 989.58 -12.1
2:36 345 1 2 1 22.3 -12.2 989.61 -12.2
2:37 345 1 2 1 22.3 -12.0 989.54 -12.0
2:38 345 0 2 1 22.3 -12.3 989.58 -12.3
2:39 344 0 0 1 22.3 -12.1 989.61 -12.1
2:40 344 0 1 1 22.2 -12.1 989.51 -12.1
2:41 344 0 1 1 22.3 -12.2 989.54 -12.2
2:42 345 0 0 1 22.3 -11.9 989.58 -11.9
2:43 345 0 0 1 22.2 -12.3 989.51 -12.3
2:44 345 1 1 1 22.3 -12.3 989.51 -12.3
2:45 345 1 1 1 22.3 -12.2 989.44 -12.2
2:46 344 1 2 1 22.3 -12.3 989.51 -12.3
2:47 344 0 1 1 22.3 -12.4 989.48 -12.4
2:48 344 0 0 1 22.3 -12.3 989.51 -12.3
2:49 344 0 0 1 22.3 -12.4 989.51 -12.4
2:50 344 0 0 1 22.2 -11.9 989.48 -11.9
2:51 344 0 0 1 22.3 -12.1 989.41 -12.1
2:52 344 0 0 1 22.2 -12.1 989.44 -12.1
2:53 344 0 0 1 22.2 -11.8 989.41 -11.8
2:54 344 0 0 1 22.2 -12.2 989.41 -12.2
2:55 344 1 1 1 22.2 -12.0 989.48 -12.0
2:56 344 1 1 1 22.2 -11.7 989.37 -11.7
2:57 344 0 2 1 22.2 -12.1 989.44 -12.1
2:58 344 1 1 1 22.2 -12.2 989.31 -12.2
2:59 344 0 1 1 22.3 -12.1 989.44 -12.1
3:00 344 0 0 1 22.2 -11.7 989.31 -11.7
3:01 344 0 0 1 22.2 -11.9 989.31 -11.9
3:02 344 0 0 1 22.2 -12.1 989.24 -12.1
3:03 344 0 0 1 22.3 -11.7 989.24 -11.7
3:04 344 0 0 1 22.2 -11.7 989.27 -11.7
3:05 344 0 0 1 22.2 -11.9 989.27 -11.9
3:06 344 0 0 1 22.2 -11.5 989.31 -11.5
3:07 344 0 0 1 22.2 -11.9 989.31 -11.9
3:08 344 0 0 1 22.2 -11.8 989.31 -11.8
3:09 344 0 0 1 22.2 -11.4 989.21 -11.4
3:10 344 0 0 1 22.2 -11.3 989.27 -11.3
3:11 344 0 0 1 22.2 -11.6 989.31 -11.6
3:12 344 0 0 1 22.2 -11.7 989.31 -11.7
3:13 344 0 0 1 22.2 -11.8 989.34 -11.8
3:14 344 0 0 1 22.2 -11.8 989.31 -11.8
3:15 344 0 0 1 22.2 -11.8 989.27 -11.8
3:16 344 0 0 1 22.2 -11.4 989.27 -11.4
3:17 344 0 0 1 22.2 -11.7 989.31 -11.7
3:18 344 0 0 1 22.2 -11.4 989.37 -11.4
3:19 344 0 0 1 22.2 -11.8 989.31 -11.8
3:20 344 0 0 1 22.2 -11.7 989.24 -11.7
3:21 344 0 0 1 22.2 -11.4 989.31 -11.4
3:22 344 0 1 1 22.2 -11.9 989.27 -11.9
3:23 344 0 0 1 22.2 -11.7 989.34 -11.7
3:24 344 0 0 1 22.2 -11.3 989.34 -11.3
3:25 344 1 2 1 22.2 -11.3 989.27 -11.3
3:26 345 1 2 1 22.2 -11.5 989.31 -11.5
3:27 345 1 2 1 22.2 -11.7 989.34 -11.7
3:28 345 0 1 1 22.2 -11.7 989.31 -11.7
3:29 345 0 1 1 22.2 -11.5 989.31 -11.5
3:30 345 1 1 1 22.2 -11.6 989.37 -11.6
3:31 345 0 1 1 22.2 -11.4 989.31 -11.4
3:32 345 0 1 1 22.2 -11.4 989.27 -11.4
3:33 345 1 2 1 22.2 -11.8 989.27 -11.8
3:34 347 1 2 1 22.2 -11.9 989.24 -11.9
3:35 351 2 2 1 22.2 -11.8 989.31 -13.6
3:36 352 1 2 1 22.2 -11.9 989.31 -11.9
3:37 352 0 1 1 22.2 -11.9 989.27 -11.9
3:38 352 1 2 1 22.2 -11.9 989.24 -11.9
3:39 352 1 2 1 22.2 -11.8 989.27 -11.8
3:40 352 1 2 1 22.2 -11.9 989.27 -11.9
3:41 352 0 2 1 22.2 -11.5 989.34 -11.5
3:42 352 2 2 1 22.2 -12.0 989.31 -13.8
3:43 357 2 3 1 22.2 -11.9 989.27 -13.7
3:44 0 2 3 1 22.2 -11.9 989.21 -13.6
3:45 0 0 2 1 22.2 -11.6 989.24 -11.6
3:46 0 0 2 1 22.2 -11.6 989.21 -11.6
3:47 0 0 1 1 22.2 -11.8 989.27 -11.8
3:48 0 0 0 1 22.2 -11.8 989.31 -11.8
3:49 0 1 1 1 22.2 -11.7 989.24 -11.7
3:50 0 0 1 1 22.2 -11.7 989.21 -11.7
3:51 0 0 1 1 22.2 -11.5 989.21 -11.5
3:52 0 0 2 1 22.2 -11.6 989.21 -11.6
3:53 0 0 1 1 22.2 -11.6 989.17 -11.6
3:54 0 0 0 1 22.2 -11.7 989.21 -11.7
3:55 0 0 1 1 22.2 -11.4 989.17 -11.4
3:56 0 1 2 1 22.2 -11.3 989.17 -11.3
3:57 0 0 2 1 22.2 -11.7 989.21 -11.7
3:58 0 0 1 1 22.2 -11.9 989.10 -11.9
3:59 0 0 1 1 22.2 -11.6 989.10 -11.6
4:00 0 0 0 1 22.2 -11.5 989.07 -11.5
4:01 0 0 1 1 22.2 -11.9 989.14 -11.9
4:02 0 1 1 1 22.2 -11.8 989.14 -11.8
4:03 0 3 3 1 22.2 -11.9 989.14 -15.0
4:04 0 2 3 1 22.2 -11.5 989.14 -13.2
4:05 0 2 2 1 22.2 -11.8 989.21 -13.6
4:06 0 1 2 1 22.2 -11.6 989.14 -11.6
4:07 0 0 1 1 22.2 -11.4 989.14 -11.4
4:08 0 0 2 1 22.2 -11.7 989.14 -11.7
4:09 0 0 0 1 22.2 -11.4 989.17 -11.4
4:10 0 0 0 1 22.2 -11.9 989.07 -11.9
4:11 0 0 0 1 22.2 -11.7 989.07 -11.7
4:12 0 0 0 1 22.2 -11.9 989.04 -11.9
4:13 0 0 0 1 22.2 -11.9 989.10 -11.9
4:14 0 0 0 1 22.2 -11.8 989.07 -11.8
4:15 0 0 1 1 22.2 -11.4 989.07 -11.4
4:16 0 2 2 1 22.2 -11.5 989.10 -13.2
4:17 0 1 2 1 22.2 -11.9 989.10 -11.9
4:18 0 0 2 1 22.2 -11.9 989.04 -11.9
4:19 0 1 1 1 22.2 -11.9 989.10 -11.9
4:20 0 1 1 1 22.2 -11.6 989.10 -11.6
4:21 0 2 2 1 22.2 -11.8 989.07 -13.6
4:22 0 1 2 1 22.2 -11.8 989.04 -11.8
4:23 0 1 2 1 22.2 -11.4 989.10 -11.4
4:24 0 1 2 1 22.2 -11.8 989.10 -11.8
4:25 0 0 2 1 22.2 -11.6 989.07 -11.6
4:26 0 1 2 1 22.2 -11.6 989.00 -11.6
4:27 0 0 2 1 22.2 -11.9 989.00 -11.9
4:28 0 0 1 1 22.2 -11.9 989.04 -11.9
4:29 0 1 2 1 22.2 -11.5 989.07 -11.5
4:30 0 2 2 1 22.2 -11.8 989.07 -13.6
4:31 0 1 2 1 22.2 -11.7 989.00 -11.7
4:32 0 1 1 1 22.2 -11.7 989.00 -11.7
4:33 0 1 2 1 22.2 -11.8 989.07 -11.8
4:34 0 2 3 1 22.2 -11.7 989.00 -13.5
4:35 0 2 2 1 22.2 -12.1 989.00 -13.8
4:36 0 1 2 1 22.2 -11.6 989.00 -11.6
4:37 0 0 1 1 22.2 -11.7 989.00 -11.7
4:38 0 2 2 1 22.2 -11.6 989.04 -13.3
4:39 0 1 2 1 22.2 -12.2 988.97 -12.2
4:40 0 0 2 1 22.2 -12.1 988.93 -12.1
4:41 0 1 1 1 22.2 -12.2 988.93 -12.2
4:42 0 0 1 1 22.2 -11.7 988.93 -11.7
4:43 0 0 0 1 22.2 -11.9 988.90 -11.9
4:44 0 0 1 1 22.2 -11.8 988.90 -11.8
4:45 0 0 1 1 22.2 -11.6 988.90 -11.6
4:46 0 0 0 1 22.2 -11.7 988.83 -11.7
4:47 0 0 0 1 22.2 -11.7 988.87 -11.7
4:48 0 0 0 1 22.2 -11.7 988.83 -11.7
4:49 0 0 0 1 22.2 -12.2 988.77 -12.2
4:50 0 0 1 1 22.2 -11.9 988.73 -11.9
4:51 0 0 1 1 22.2 -11.8 988.77 -11.8
4:52 0 0 0 1 22.2 -11.8 988.80 -11.8
4:53 0 0 0 1 22.2 -12.1 988.77 -12.1
4:54 0 0 1 1 22.2 -11.6 988.83 -11.6
4:55 0 0 0 1 22.2 -11.7 988.83 -11.7
4:56 0 0 0 1 22.2 -11.7 988.80 -11.7
4:57 0 0 0 1 22.2 -12.2 988.77 -12.2
4:58 0 0 0 1 22.2 -12.0 988.80 -12.0
4:59 0 0 0 1 22.2 -11.9 988.80 -11.9
5:00 0 0 0 1 22.2 -12.0 988.77 -12.0
5:01 0 1 1 1 22.2 -11.6 988.70 -11.6
5:02 0 1 1 1 22.2 -11.6 988.70 -11.6
5:03 0 2 2 1 22.2 -11.9 988.73 -13.6
5:04 0 1 2 1 22.2 -12.2 988.70 -12.2
5:05 0 0 1 1 22.2 -12.2 988.66 -12.2
5:06 0 0 0 1 22.2 -11.8 988.70 -11.8
5:07 0 0 0 1 22.2 -12.2 988.66 -12.2
5:08 0 0 0 1 22.2 -12.2 988.70 -12.2
5:09 0 0 0 1 22.2 -12.1 988.73 -12.1
5:10 0 0 0 1 22.2 -12.1 988.73 -12.1
5:11 0 0 0 1 22.2 -12.1 988.60 -12.1
5:12 0 0 0 1 22.2 -11.8 988.63 -11.8
5:13 0 0 0 1 22.2 -11.8 988.63 -11.8
5:14 0 0 1 1 22.2 -11.7 988.63 -11.7
5:15 0 0 1 1 22.2 -11.9 988.60 -11.9
5:16 0 0 0 1 22.2 -12.0 988.70 -12.0
5:17 0 0 1 1 22.2 -12.2 988.66 -12.2
5:18 0 1 2 1 22.2 -11.6 988.63 -11.6
5:19 0 0 1 1 22.2 -11.7 988.60 -11.7
5:20 0 0 0 1 22.2 -11.6 988.63 -11.6
5:21 0 0 0 1 22.1 -11.7 988.56 -11.7
5:22 0 0 0 1 22.1 -11.8 988.53 -11.8
5:23 0 0 0 1 22.2 -11.8 988.56 -11.8
5:24 0 0 0 1 22.1 -12.2 988.60 -12.2
5:25 0 0 0 1 22.1 -12.1 988.63 -12.1
5:26 0 0 0 1 22.1 -11.8 988.66 -11.8
5:27 0 0 0 1 22.1 -11.7 988.49 -11.7
5:28 0 0 0 1 22.1 -12.2 988.60 -12.2
5:29 0 0 0 1 22.2 -12.2 988.53 -12.2
5:30 0 0 0 1 22.2 -12.1 988.56 -12.1
5:31 0 0 0 1 22.1 -12.1 988.53 -12.1
5:32 0 0 0 1 22.2 -12.2 988.53 -12.2
5:33 0 0 1 1 22.1 -12.0 988.56 -12.0
5:34 0 1 1 1 22.2 -12.0 988.60 -12.0
5:35 0 1 1 1 22.1 -11.8 988.53 -11.8
5:36 0 0 1 1 22.2 -11.8 988.56 -11.8
5:37 0 0 1 1 22.1 -11.9 988.63 -11.9
5:38 0 0 0 1 22.1 -11.6 988.56 -11.6
5:39 0 2 2 1 22.1 -11.9 988.49 -13.6
5:40 0 2 3 1 22.1 -11.9 988.49 -13.6
5:41 0 2 3 1 22.1 -11.9 988.49 -13.6
5:42 0 0 2 1 22.1 -12.1 988.56 -12.1
5:43 0 0 1 1 22.1 -12.0 988.60 -12.0
5:44 0 0 1 1 22.2 -12.0 988.56 -12.0
5:45 0 1 2 1 22.1 -11.7 988.49 -11.7
5:46 351 3 3 1 22.1 -11.8 988.49 -14.8
5:47 0 3 3 1 22.1 -12.1 988.46 -16.2
5:48 2 0 3 1 22.1 -12.1 988.49 -12.1
5:49 2 1 2 1 22.1 -11.9 988.43 -11.9
5:50 2 1 1 1 22.1 -12.2 988.43 -12.2
5:51 2 1 3 1 22.1 -11.8 988.46 -11.8
5:52 2 3 3 1 22.1 -11.7 988.43 -14.8
5:53 3 3 3 1 22.1 -11.8 988.46 -14.8
5:54 3 3 3 1 22.1 -11.8 988.46 -14.9
5:55 3 2 3 1 22.1 -12.0 988.39 -13.8
5:56 3 1 2 1 22.1 -11.8 988.33 -11.8
5:57 3 1 2 1 22.1 -12.2 988.36 -12.2
5:58 3 1 1 1 22.1 -12.1 988.36 -12.1
5:59 3 1 2 1 22.1 -11.6 988.33 -11.6
6:00 3 3 3 1 22.1 -11.9 988.29 -14.9
6:01 3 1 3 1 22.1 -12.0 988.22 -12.0
6:02 3 0 2 1 22.1 -11.9 988.29 -11.9
6:03 3 0 0 1 22.1 -11.6 988.22 -11.6
6:04 3 2 2 1 22.1 -11.6 988.26 -13.3
6:05 3 0 2 1 22.1 -11.8 988.33 -11.8
6:06 3 1 2 1 22.1 -12.0 988.26 -12.0
6:07 3 1 1 1 22.1 -11.6 988.19 -11.6
6:08 3 3 3 1 22.1 -11.6 988.19 -14.6
6:09 3 2 3 1 22.1 -11.8 988.19 -13.6
6:10 3 2 3 1 22.1 -11.9 988.22 -13.6
6:11 3 1 3 1 22.1 -11.8 988.16 -11.8
6:12 10 3 3 1 22.1 -11.9 988.22 -14.9
6:13 0 4 5 1 22.1 -11.8 988.22 -16.6
6:14 0 2 5 1 22.1 -11.5 988.12 -13.2
6:15 341 2 3 1 22.1 -11.9 988.19 -13.7
6:16 341 3 3 1 22.1 -11.4 988.19 -14.4
6:17 341 0 3 1 22.1 -11.4 988.22 -11.4
6:18 341 2 3 1 22.1 -11.6 988.22 -13.3
6:19 343 2 3 1 22.1 -11.8 988.19 -13.6
6:20 358 3 3 1 22.1 -11.9 988.26 -14.9
6:21 354 3 4 1 22.1 -12.1 988.22 -16.1
6:22 350 3 5 1 22.1 -11.9 988.19 -14.9
6:23 342 3 4 1 22.1 -12.1 988.26 -15.2
6:24 334 3 4 1 22.1 -12.1 988.29 -16.1
6:25 327 3 4 1 22.1 -11.9 988.26 -15.9
6:26 327 3 3 1 22.1 -11.7 988.19 -14.7
6:27 333 0 3 1 22.1 -11.7 988.26 -11.7
6:28 333 3 3 1 22.1 -12.1 988.26 -15.2
6:29 333 2 3 1 22.1 -11.9 988.29 -13.6
6:30 333 0 2 1 22.1 -11.7 988.29 -11.7
6:31 333 1 2 1 22.1 -11.9 988.19 -11.9
6:32 333 2 3 1 22.1 -12.1 988.16 -13.8
6:33 339 3 3 1 22.1 -11.9 988.16 -15.9
6:34 350 2 4 1 22.1 -11.8 988.12 -13.6
6:35 346 3 3 1 22.1 -12.2 988.16 -16.2
6:36 345 0 3 1 22.1 -12.2 988.16 -12.2
6:37 345 2 2 1 22.1 -12.2 988.05 -14.0
6:38 341 8 9 1 22.1 -12.2 988.16 -19.3
6:39 350 8 8 1 22.1 -11.9 988.02 -18.9
6:40 338 4 9 1 22.1 -11.8 988.16 -16.6
6:41 337 5 6 1 22.1 -11.5 988.16 -16.9
6:42 337 4 5 1 22.1 -11.8 988.05 -16.6
6:43 330 3 4 1 22.1 -11.5 988.12 -15.5
6:44 340 3 4 1 22.1 -11.7 988.12 -15.7
6:45 329 2 4 1 22.1 -11.8 988.12 -13.5
6:46 329 3 3 1 22.1 -11.8 988.05 -14.9
6:47 331 3 3 1 22.1 -11.7 988.05 -14.7
6:48 335 3 3 1 22.1 -11.7 988.09 -14.8
6:49 334 1 3 1 22.1 -11.6 988.02 -11.6
6:50 338 6 6 1 22.1 -11.6 988.02 -17.6
6:51 331 4 7 1 22.1 -11.9 988.05 -16.7
6:52 324 4 8 1 22.1 -11.6 988.09 -16.3
6:53 340 3 7 1 22.1 -11.9 988.02 -15.9
6:54 332 4 5 1 22.1 -11.9 988.12 -16.7
6:55 318 9 10 1 22.1 -11.9 988.05 -19.3
6:56 329 9 9 1 22.1 -11.6 988.12 -18.9
6:57 333 7 9 1 22.1 -11.8 988.05 -18.3
6:58 330 3 7 1 22.1 -11.9 988.05 -15.9
6:59 320 9 10 1 22.1 -11.8 988.05 -19.3
7:00 346 3 9 1 22.1 -11.8 988.02 -15.8
7:01 342 2 3 1 22.1 -12.1 988.05 -13.9
7:02 346 4 5 1 22.1 -12.2 988.05 -17.0
7:03 347 3 8 1 22.1 -12.0 987.95 -16.0
7:04 331 3 8 1 22.1 -12.2 987.95 -16.3
7:05 328 2 6 1 22.1 -11.9 988.02 -13.7
7:06 324 6 8 1 22.1 -12.3 987.95 -18.5
7:07 323 3 6 1 22.1 -11.9 987.99 -14.9
7:08 324 3 4 1 22.1 -12.3 987.92 -15.4
7:09 358 5 6 1 22.1 -12.2 987.95 -17.7
7:10 337 4 5 1 22.1 -12.2 987.92 -17.0
7:11 296 3 10 1 22.1 -12.3 987.85 -16.4
7:12 342 5 6 1 22.1 -11.9 987.92 -17.4
7:13 342 5 8 1 22.1 -12.1 987.78 -17.6
7:14 312 7 7 1 22.1 -12.4 987.85 -19.1
7:15 334 9 10 1 22.1 -12.1 987.85 -19.5
7:16 353 6 9 1 22.1 -12.3 987.82 -18.5
7:17 0 3 6 1 22.1 -12.1 987.82 -15.1
7:18 339 3 5 1 22.1 -12.5 987.82 -15.6
7:19 295 5 7 1 22.1 -12.1 987.75 -17.6
7:20 354 3 7 1 22.1 -12.6 987.75 -16.7
7:21 307 5 6 1 22.1 -12.5 987.78 -18.1
7:22 297 9 10 1 22.1 -12.7 987.85 -20.3
7:23 331 3 9 1 22.1 -12.3 987.75 -15.4
7:24 346 3 5 1 22.1 -12.3 987.72 -16.4
7:25 341 6 6 1 22.1 -12.2 987.82 -18.3
7:26 339 3 6 1 22.1 -12.5 987.75 -16.6
7:27 327 3 9 1 22.1 -12.6 987.75 -15.8
7:28 351 5 5 1 22.1 -12.4 987.72 -18.0
7:29 346 6 8 1 22.1 -12.5 987.68 -18.7
7:30 344 9 11 1 22.1 -12.4 987.65 -20.0
7:31 329 5 9 1 22.1 -12.4 987.65 -18.0
7:32 287 2 5 1 22.1 -12.6 987.72 -14.4
7:33 354 5 7 1 22.1 -12.7 987.72 -18.3
7:34 330 4 8 1 22.1 -12.5 987.72 -17.4
7:35 339 6 7 1 22.1 -12.6 987.65 -18.7
7:36 345 8 10 1 22.1 -13.0 987.61 -20.3
7:37 342 4 10 1 22.1 -12.8 987.58 -17.7
7:38 347 6 6 1 22.1 -12.4 987.65 -18.5
7:39 334 4 8 1 22.1 -12.4 987.58 -17.3
7:40 329 4 7 1 22.1 -12.7 987.51 -17.7
7:41 345 3 9 1 22.1 -12.8 987.55 -17.0
7:42 352 3 7 1 22.1 -12.4 987.55 -16.5
7:43 343 9 9 1 22.1 -12.4 987.55 -20.0
7:44 347 3 9 1 22.1 -12.8 987.48 -16.9
7:45 341 8 10 1 22.1 -12.5 987.48 -19.7
7:46 328 4 9 1 22.1 -12.9 987.55 -17.9
7:47 346 6 6 1 22.1 -12.6 987.51 -18.7
7:48 2 6 7 1 22.1 -13.0 987.58 -19.3
7:49 341 6 7 1 22.1 -12.6 987.51 -18.8
7:50 345 4 6 1 22.1 -12.7 987.55 -17.6
7:51 335 7 9 1 22.1 -12.7 987.51 -19.5
7:52 323 6 7 1 22.1 -13.1 987.38 -19.3
7:53 338 4 7 1 22.1 -12.9 987.51 -17.9
7:54 338 6 9 1 22.1 -12.7 987.48 -18.9
7:55 318 10 10 1 22.1 -13.1 987.44 -21.2
7:56 337 3 10 1 22.1 -13.0 987.44 -17.2
7:57 339 9 9 1 22.1 -12.9 987.51 -20.6
7:58 340 5 9 1 22.1 -12.4 987.48 -18.0
7:59 336 3 5 1 22.1 -12.8 987.44 -16.9
8:00 337 3 6 1 22.1 -12.8 987.51 -17.0
8:01 341 5 5 1 22.1 -12.6 987.44 -18.2
8:02 355 3 6 1 22.1 -12.6 987.51 -16.7
8:03 354 5 5 1 22.1 -12.8 987.48 -18.5
8:04 350 4 5 1 22.1 -12.7 987.51 -17.6
8:05 324 5 7 1 22.1 -12.6 987.48 -18.2
8:06 325 3 9 1 22.1 -12.6 987.44 -15.8
8:07 338 4 5 1 22.1 -12.7 987.38 -17.6
8:08 350 4 4 1 22.1 -12.7 987.38 -17.7
8:09 337 3 6 1 22.1 -12.5 987.31 -16.6
8:10 331 3 3 1 22.1 -12.6 987.31 -16.7
8:11 338 6 8 1 22.1 -12.4 987.31 -18.5
8:12 313 2 8 1 22.0 -12.4 987.38 -14.3
8:13 327 7 11 1 22.1 -12.4 987.34 -19.1
8:14 333 4 7 1 22.0 -12.8 987.31 -17.7
8:15 340 2 6 1 22.1 -12.3 987.31 -14.1
8:16 359 3 5 1 22.1 -12.9 987.31 -17.1
8:17 358 3 5 1 22.1 -12.6 987.31 -15.8
8:18 331 6 8 1 22.1 -12.4 987.31 -18.6
8:19 353 4 6 1 22.1 -12.5 987.31 -17.4
8:20 318 5 7 1 22.1 -12.7 987.24 -18.3
8:21 353 3 5 1 22.1 -12.7 987.28 -15.9
8:22 0 3 5 1 22.1 -12.8 987.34 -16.0
8:23 345 4 5 1 22.1 -12.3 987.28 -17.2
8:24 345 6 6 1 22.1 -12.9 987.28 -19.1
8:25 26 4 6 1 22.1 -12.8 987.28 -17.8
8:26 353 5 5 1 22.1 -12.6 987.31 -18.2
8:27 351 5 5 1 22.1 -12.9 987.31 -18.6
8:28 4 4 5 1 22.1 -12.8 987.28 -17.8
8:29 339 1 5 1 22.1 -12.7 987.28 -12.7
8:30 0 1 3 1 22.1 -12.6 987.24 -12.6
8:31 353 3 5 1 22.2 -12.7 987.21 -15.8
8:32 353 5 5 1 22.2 -12.4 987.24 -18.0
8:33 331 3 6 1 22.2 -12.5 987.24 -16.6
8:34 330 4 4 1 22.2 -12.4 987.28 -17.3
8:35 333 3 4 1 22.2 -12.3 987.24 -15.4
8:36 340 4 5 1 22.2 -12.6 987.24 -17.5
8:37 334 3 4 1 22.2 -12.2 987.24 -15.3
8:38 333 3 3 1 22.2 -12.4 987.21 -15.6
8:39 333 2 4 1 22.2 -12.6 987.28 -14.4
8:40 345 5 5 1 22.2 -12.7 987.17 -18.3
8:41 340 4 5 1 22.2 -12.4 987.21 -17.3
8:42 333 3 4 1 22.2 -12.5 987.21 -16.6
8:43 335 4 5 1 22.2 -12.3 987.17 -17.2
8:44 342 3 4 1 22.2 -12.6 987.14 -16.7
8:45 337 2 3 1 22.2 -12.2 987.04 -14.0
8:46 337 2 3 1 22.2 -12.4 987.14 -14.2
8:47 337 1 3 1 22.2 -12.4 987.00 -12.4
8:48 341 3 3 1 22.2 -12.7 987.04 -15.9
8:49 352 4 4 1 22.2 -12.6 987.11 -17.5
8:50 346 2 4 1 22.2 -12.4 987.07 -14.2
8:51 345 0 3 1 22.2 -12.2 987.11 -12.2
8:52 345 3 3 1 22.2 -12.4 987.04 -15.6
8:53 345 3 3 1 22.2 -12.4 987.07 -16.5
8:54 334 2 3 1 22.2 -12.3 987.04 -14.1
8:55 334 1 2 1 22.2 -12.4 987.04 -12.4
8:56 334 2 2 1 22.2 -12.6 987.00 -14.4
8:57 335 2 3 1 22.2 -12.2 987.04 -13.9
8:58 334 2 4 1 22.2 -12.4 987.04 -14.2
8:59 333 5 6 1 22.2 -12.6 986.97 -18.2
9:00 331 2 5 1 22.2 -12.4 986.97 -14.3
9:01 334 3 3 1 22.2 -12.2 987.04 -16.2
9:02 343 1 4 1 22.2 -12.8 987.11 -12.8
9:03 343 2 3 1 22.2 -12.6 987.04 -14.4
9:04 347 3 3 1 22.2 -12.5 987.07 -15.6
9:05 347 2 3 1 22.2 -12.3 987.04 -14.1
9:06 346 4 4 1 22.1 -12.2 987.04 -17.1
9:07 333 6 7 1 22.1 -12.3 986.97 -18.4
9:08 330 1 6 1 22.1 -12.4 986.90 -12.4
9:09 340 2 3 1 22.2 -12.4 986.94 -14.2
9:10 341 1 2 1 22.1 -12.3 986.87 -12.3
9:11 341 2 2 1 22.1 -12.5 986.97 -14.3
9:12 341 2 2 1 22.1 -12.7 986.94 -14.6
9:13 341 1 3 1 22.1 -12.4 986.94 -12.4
9:14 341 1 1 1 22.1 -12.5 986.97 -12.5
9:15 341 2 2 1 22.1 -12.4 986.97 -14.2
9:16 343 3 3 1 22.1 -12.5 986.97 -15.6
9:17 344 3 4 1 22.1 -12.5 986.97 -16.6
9:18 348 3 4 1 22.1 -12.6 986.97 -16.7
9:19 347 2 3 1 22.1 -12.7 986.97 -14.6
9:20 347 2 3 1 22.1 -12.6 986.94 -14.4
9:21 351 3 4 1 22.1 -12.5 986.97 -16.6
9:22 0 3 4 1 22.1 -12.6 987.00 -15.8
9:23 2 3 3 1 22.1 -12.7 986.94 -16.9
9:24 21 2 3 1 22.1 -12.4 986.90 -14.2
9:25 21 1 2 1 22.1 -12.9 986.84 -12.9
9:26 21 1 2 1 22.1 -12.5 986.87 -12.5
9:27 21 1 2 1 22.1 -12.5 986.90 -12.5
9:28 21 0 1 1 22.1 -12.9 986.90 -12.9
9:29 21 2 2 1 22.1 -12.8 986.87 -14.6
9:30 21 3 3 1 22.1 -12.7 986.90 -15.8
9:31 24 3 3 1 22.1 -12.9 986.94 -16.1
9:32 36 2 3 1 22.1 -13.0 986.90 -14.9
9:33 18 5 7 1 22.1 -12.8 986.87 -18.4
9:34 344 5 10 1 22.1 -12.2 986.94 -17.8
9:35 0 3 5 1 22.1 -12.4 986.97 -15.6
9:36 354 3 4 1 22.1 -11.9 986.94 -16.0
9:37 350 5 6 1 22.1 -12.1 987.00 -17.6
9:38 338 3 5 1 22.1 -11.9 986.94 -16.0
9:39 339 3 4 1 22.1 -11.9 986.94 -15.9
9:40 341 5 6 1 22.1 -11.9 986.87 -17.4
9:41 357 3 6 1 22.1 -11.8 986.87 -15.8
9:42 352 8 9 1 22.1 -11.7 986.87 -18.7
9:43 2 9 9 1 22.1 -11.5 986.90 -18.8
9:44 351 6 12 1 22.1 -11.3 986.97 -17.3
9:45 358 3 8 1 22.1 -11.4 986.87 -15.4
9:46 7 7 7 1 22.1 -11.2 986.97 -17.6
9:47 15 8 8 1 22.1 -11.4 986.94 -18.4
9:48 15 6 9 1 22.1 -11.2 986.94 -17.1
9:49 18 4 9 1 22.1 -11.6 986.90 -16.3
9:50 21 5 6 1 22.1 -11.2 986.97 -16.6
9:51 4 6 10 1 22.1 -10.9 986.94 -16.8
9:52 1 3 8 1 22.1 -10.9 986.97 -14.8
9:53 1 4 6 1 22.1 -11.4 986.94 -16.1
9:54 356 8 9 1 22.1 -10.9 987.00 -17.7
9:55 344 3 12 1 22.1 -10.9 986.94 -14.8
9:56 12 7 10 1 22.1 -11.0 986.87 -17.4
9:57 358 5 10 1 22.1 -11.1 986.90 -16.4
9:58 10 10 10 1 22.1 -10.8 986.97 -18.3
9:59 15 6 10 1 22.1 -11.1 986.90 -17.0
10:00 30 7 10 1 22.1 -10.8 987.00 -17.1
10:01 43 6 9 1 22.1 -11.3 986.97 -17.3
10:02 39 8 11 1 22.1 -11.6 986.87 -18.5
10:03 48 8 10 1 22.1 -11.7 986.94 -18.6
10:04 33 5 10 1 22.1 -11.2 986.97 -16.6
10:05 15 9 10 1 22.1 -11.2 986.90 -18.4
10:06 4 9 10 1 22.1 -11.3 986.97 -18.6
10:07 15 9 10 1 22.1 -11.4 987.00 -18.8
10:08 37 5 12 1 22.1 -11.7 987.00 -17.1
10:09 26 12 14 1 22.1 -11.3 986.97 -19.9
10:10 11 11 12 1 22.1 -11.8 986.90 -20.3
10:11 356 12 12 1 22.1 -11.8 986.90 -20.6
10:12 359 7 12 1 22.1 -11.8 986.90 -18.3
10:13 2 4 9 1 22.1 -11.4 986.87 -16.1
10:14 2 5 6 1 22.1 -11.5 986.84 -16.9
10:15 0 7 9 1 22.1 -11.5 986.84 -18.0
10:16 1 6 10 1 22.1 -11.2 986.84 -17.1
10:17 358 4 9 1 22.1 -11.3 986.80 -16.0
10:18 349 12 12 1 22.1 -11.2 986.84 -19.8
10:19 349 10 15 1 22.1 -10.9 986.73 -18.8
10:20 346 9 13 1 22.1 -11.2 986.80 -18.4
10:21 357 5 10 1 22.1 -10.7 986.77 -15.9
10:22 348 8 9 1 22.1 -11.0 986.77 -17.8
10:23 347 10 11 1 22.1 -10.9 986.77 -18.5
10:24 336 7 11 1 22.1 -10.7 986.70 -17.0
10:25 347 11 11 1 22.1 -10.9 986.80 -19.2
10:26 348 9 13 1 22.1 -10.7 986.73 -17.8
10:27 344 10 12 1 22.1 -10.7 986.70 -18.3
10:28 344 10 13 1 22.1 -10.7 986.67 -18.2
10:29 339 7 13 1 22.1 -11.0 986.73 -17.4
10:30 346 8 13 1 22.1 -11.1 986.70 -17.9
10:31 339 12 15 1 22.1 -10.9 986.67 -19.5
10:32 348 6 12 1 22.1 -11.1 986.70 -17.0
10:33 344 8 12 1 22.1 -10.9 986.67 -17.8
10:34 350 9 11 1 22.1 -11.1 986.67 -18.3
10:35 345 9 10 1 22.1 -10.7 986.63 -17.9
10:36 348 6 9 1 22.1 -11.2 986.63 -17.1
10:37 353 8 9 1 22.1 -10.9 986.60 -17.8
10:38 349 10 11 1 22.2 -10.7 986.67 -18.3
10:39 348 9 10 1 22.2 -10.7 986.63 -17.9
10:40 340 8 10 1 22.2 -11.1 986.56 -18.0
10:41 352 6 8 1 22.2 -10.9 986.56 -16.8
10:42 359 5 7 1 22.2 -11.1 986.50 -16.4
10:43 358 5 6 1 22.2 -10.9 986.60 -16.2
10:44 358 5 6 1 22.2 -11.3 986.60 -16.7
10:45 349 6 6 1 22.2 -10.9 986.63 -16.7
10:46 344 6 9 1 22.2 -10.8 986.63 -16.6
10:47 342 6 11 1 22.3 -10.9 986.60 -16.7
10:48 345 6 8 1 22.3 -11.0 986.53 -16.9
10:49 349 6 8 1 22.3 -11.2 986.53 -17.1
10:50 349 6 9 1 22.3 -11.1 986.50 -16.9
10:51 351 6 9 1 22.3 -11.0 986.46 -16.9
10:52 356 7 7 1 22.3 -11.2 986.46 -17.6
10:53 339 5 7 1 22.3 -11.3 986.43 -16.6
10:54 347 3 6 1 22.3 -11.2 986.50 -15.1
10:55 355 3 6 1 22.3 -11.3 986.50 -15.2
10:56 351 4 4 1 22.3 -11.3 986.39 -16.0
10:57 342 3 5 1 22.3 -11.4 986.46 -15.3
10:58 338 2 3 2 22.3 -10.9 986.46 -12.6
10:59 343 3 3 2 22.3 -11.1 986.46 -15.0
11:00 355 4 4 3 22.3 -11.1 986.53 -15.8
11:01 351 3 4 3 22.3 -11.2 986.50 -14.1
11:02 331 1 3 4 22.3 -11.1 986.43 -11.1
11:03 331 1 1 4 22.3 -11.0 986.39 -11.0
11:04 304 3 3 5 22.3 -11.6 986.39 -14.6
11:05 270 3 3 5 22.3 -11.5 986.43 -14.5
11:06 269 1 3 6 22.3 -11.4 986.39 -11.4
11:07 263 0 3 6 22.3 -11.7 986.39 -11.7
11:08 254 2 3 7 22.3 -12.0 986.39 -13.8
11:09 253 0 2 7 22.3 -11.8 986.43 -11.8
11:10 254 1 3 7 22.2 -11.8 986.43 -11.8
11:11 238 3 3 8 22.2 -11.7 986.46 -14.7
11:12 237 3 3 8 22.2 -12.0 986.43 -15.1
11:13 237 2 3 8 22.2 -11.8 986.46 -13.6
11:14 235 2 2 9 22.2 -11.5 986.46 -13.2
11:15 234 0 3 9 22.2 -11.6 986.39 -11.6
11:16 235 1 1 9 22.2 -11.1 986.39 -11.1
11:17 234 0 2 9 22.2 -11.1 986.39 -11.1
11:18 233 1 2 9 22.2 -11.2 986.29 -11.2
11:19 233 1 2 10 22.2 -11.3 986.26 -11.3
11:20 233 0 2 10 22.2 -11.2 986.26 -11.2
11:21 232 0 0 10 22.2 -11.2 986.33 -11.2
11:22 232 1 1 10 22.2 -11.3 986.33 -11.3
11:23 233 0 1 10 22.1 -11.1 986.29 -11.1
11:24 233 0 0 10 22.1 -11.1 986.36 -11.1
11:25 232 0 0 10 22.1 -11.1 986.36 -11.1
11:26 232 1 1 10 22.1 -10.9 986.29 -10.9
11:27 232 0 1 10 22.1 -11.2 986.33 -11.2
11:28 232 0 0 11 22.1 -11.4 986.29 -11.4
11:29 233 0 0 11 22.1 -11.3 986.33 -11.3
11:30 233 0 0 11 22.1 -11.1 986.29 -11.1
11:31 233 0 1 11 22.1 -11.1 986.26 -11.1
11:32 233 0 1 11 22.1 -10.7 986.36 -10.7
11:33 233 1 1 11 22.0 -10.9 986.33 -10.9
11:34 231 2 3 11 22.0 -11.0 986.33 -12.7
11:35 113 3 3 11 22.0 -11.2 986.29 -15.1
11:36 65 3 4 11 21.9 -11.1 986.26 -15.0
11:37 63 8 8 11 21.9 -11.2 986.23 -18.1
11:38 45 7 9 11 21.9 -11.4 986.19 -17.8
11:39 41 8 8 11 21.9 -11.5 986.12 -18.4
11:40 43 9 10 11 21.9 -11.6 986.23 -19.0
11:41 35 7 10 11 21.9 -11.9 986.16 -18.5
11:42 23 10 15 11 21.8 -12.1 986.19 -20.4
11:43 49 11 12 11 21.8 -12.0 986.09 -20.5
11:44 49 10 12 11 21.8 -11.7 986.06 -19.8
11:45 50 8 11 11 21.8 -11.9 986.09 -18.9
11:46 57 10 10 11 21.8 -12.0 986.09 -19.9
11:47 48 7 10 11 21.8 -12.3 986.02 -19.0
11:48 53 10 12 11 21.8 -11.7 986.06 -19.9
11:49 55 7 10 11 21.8 -12.1 986.06 -18.7
11:50 56 5 8 11 21.7 -12.2 986.06 -17.8
11:51 56 8 8 11 21.7 -11.9 985.99 -18.9
11:52 47 9 10 11 21.7 -12.2 985.99 -19.7
11:53 37 6 9 11 21.7 -11.9 986.02 -18.0
11:54 49 10 11 11 21.7 -12.0 986.02 -19.9
11:55 49 7 10 11 21.7 -12.1 985.95 -18.7
11:56 51 7 10 11 21.7 -11.8 985.99 -18.3
11:57 52 9 9 12 21.7 -11.8 986.02 -19.2
11:58 48 6 9 12 21.7 -11.7 985.99 -17.7
11:59 48 5 8 12 21.7 -11.8 985.99 -17.3
12:00 50 8 9 12 21.7 -11.6 985.95 -18.6
12:01 56 6 9 12 21.7 -11.9 985.92 -18.0
12:02 57 7 10 12 21.6 -11.8 985.89 -18.4
12:03 48 4 7 12 21.6 -12.1 985.89 -17.0
12:04 57 5 8 12 21.6 -11.8 985.89 -17.2
12:05 69 5 7 12 21.6 -11.8 985.92 -17.2
12:06 64 3 5 12 21.6 -12.1 985.79 -15.1
12:07 64 2 3 12 21.6 -11.9 985.85 -13.6
12:08 50 5 7 12 21.6 -11.4 985.92 -16.8
12:09 45 7 8 12 21.6 -11.4 985.89 -17.8
12:10 49 5 7 12 21.6 -11.8 985.85 -17.3
12:11 58 3 5 12 21.6 -11.4 985.85 -15.4
12:12 50 4 6 12 21.6 -11.3 985.85 -16.0
12:13 45 5 5 12 21.5 -11.4 985.89 -16.8
12:14 45 4 10 12 21.5 -11.5 985.85 -16.2
12:15 49 7 9 12 21.5 -11.4 985.82 -17.8
12:16 51 8 9 12 21.5 -11.7 985.82 -18.7
12:17 55 11 11 12 21.4 -11.9 985.82 -20.5
12:18 59 5 11 12 21.4 -11.4 985.82 -16.8
12:19 70 10 11 12 21.4 -11.4 985.79 -19.1
12:20 66 9 12 12 21.4 -11.7 985.65 -19.1
12:21 67 7 11 12 21.4 -11.3 985.72 -17.8
12:22 66 9 12 12 21.4 -11.5 985.79 -18.8
12:23 71 5 10 12 21.4 -11.6 985.75 -17.0
12:24 62 11 11 12 21.4 -11.1 985.72 -19.4
12:25 63 4 11 12 21.4 -10.9 985.68 -15.6
12:26 72 10 10 12 21.4 -11.3 985.68 -19.4
12:27 74 10 12 12 21.4 -11.6 985.55 -19.4
12:28 67 13 13 12 21.4 -11.7 985.65 -20.7
12:29 73 10 13 12 21.3 -11.3 985.62 -19.4
12:30 68 9 13 12 21.3 -11.9 985.51 -19.4
12:31 72 11 14 12 21.3 -11.8 985.58 -20.3
12:32 72 8 12 12 21.3 -11.9 985.58 -18.9
12:33 83 10 11 12 21.3 -12.2 985.51 -20.5
12:34 83 8 10 12 21.3 -12.3 985.65 -19.5
12:35 80 11 11 12 21.3 -12.2 985.55 -20.8
12:36 78 11 11 12 21.3 -12.6 985.68 -21.3
12:37 74 8 11 12 21.3 -12.2 985.72 -19.3
12:38 68 14 14 12 21.3 -11.8 985.75 -21.2
12:39 65 12 14 12 21.3 -12.3 985.62 -21.2
12:40 82 12 13 12 21.3 -12.0 985.51 -20.9
12:41 83 10 14 12 21.3 -12.3 985.48 -20.6
12:42 82 14 14 12 21.3 -12.3 985.48 -21.9
12:43 80 11 16 12 21.3 -12.6 985.51 -21.3
12:44 83 13 14 12 21.3 -12.6 985.45 -21.9
12:45 87 10 14 12 21.3 -12.7 985.48 -20.8
12:46 77 11 14 12 21.3 -12.7 985.51 -21.4
12:47 86 11 14 12 21.3 -12.9 985.51 -21.7
12:48 75 10 16 12 21.3 -12.6 985.48 -20.5
12:49 71 14 14 12 21.3 -12.4 985.51 -22.0
12:50 71 9 14 12 21.4 -12.4 985.45 -20.0
12:51 79 10 12 12 21.4 -12.5 985.45 -20.8
12:52 79 13 13 12 21.4 -12.9 985.51 -22.4
12:53 86 13 16 12 21.3 -12.7 985.41 -22.1
12:54 90 10 13 12 21.4 -12.8 985.51 -21.2
12:55 72 11 13 12 21.3 -12.7 985.45 -21.5
12:56 78 9 12 12 21.4 -12.9 985.41 -20.6
12:57 78 17 17 12 21.4 -13.0 985.38 -23.7
12:58 73 16 17 12 21.3 -13.1 985.51 -23.3
12:59 82 15 17 12 21.4 -12.9 985.51 -22.9
13:00 81 16 16 12 21.3 -13.3 985.62 -23.7
13:01 85 16 16 12 21.4 -13.2 985.58 -23.5
13:02 84 11 16 12 21.4 -13.1 985.72 -22.0
13:03 80 10 13 12 21.4 -12.9 985.45 -21.4
13:04 74 14 18 12 21.3 -13.2 985.58 -22.9
13:05 72 12 15 12 21.4 -13.1 985.62 -22.3
13:06 66 13 17 12 21.3 -13.4 985.51 -23.0
13:07 80 12 17 12 21.3 -13.3 985.51 -22.5
13:08 79 11 17 12 21.3 -12.9 985.48 -21.7
13:09 75 16 17 12 21.3 -13.2 985.41 -23.5
13:10 64 15 18 12 21.3 -12.8 985.41 -22.8
13:11 67 17 18 12 21.3 -13.5 985.45 -24.4
13:12 78 13 17 12 21.3 -12.9 985.38 -22.4
13:13 65 16 17 12 21.3 -13.5 985.31 -23.9
13:14 68 12 18 12 21.3 -13.0 985.28 -22.1
13:15 79 15 17 12 21.3 -13.0 985.34 -23.0
13:16 85 13 16 12 21.3 -13.2 985.31 -22.6
13:17 79 13 17 13 21.3 -13.6 985.28 -23.2
13:18 67 15 15 12 21.3 -13.5 985.24 -23.6
13:19 74 16 17 12 21.3 -13.4 985.31 -23.8
13:20 70 16 17 13 21.3 -13.6 985.31 -24.0
13:21 74 16 18 12 21.3 -13.4 985.24 -23.8
13:22 80 13 16 13 21.3 -13.4 985.34 -22.9
13:23 62 17 19 13 21.3 -13.4 985.28 -24.0
13:24 66 15 18 13 21.3 -13.3 985.31 -23.4
13:25 72 12 18 13 21.3 -13.8 985.28 -23.2
13:26 74 10 17 13 21.3 -13.8 985.18 -22.4
13:27 78 13 14 13 21.3 -13.3 985.18 -22.8
13:28 83 16 17 13 21.3 -13.6 985.28 -24.0
13:29 79 12 16 13 21.3 -13.3 985.31 -22.5
13:30 97 15 18 13 21.3 -13.3 985.45 -23.4
13:31 99 16 18 12 21.3 -13.9 985.31 -24.4
13:32 100 20 20 13 21.3 -13.9 985.31 -25.6
13:33 98 22 22 13 21.3 -14.2 985.28 -26.4
13:34 100 17 22 13 21.3 -14.8 985.28 -25.8
13:35 106 15 20 13 21.3 -14.6 985.24 -25.1
13:36 103 17 20 13 21.3 -15.6 985.31 -26.8
13:37 104 19 20 13 21.3 -16.4 985.34 -28.7
13:38 99 13 20 13 21.3 -16.2 985.31 -26.6
13:39 100 21 23 13 21.3 -16.3 985.31 -29.0
13:40 99 22 24 13 21.3 -16.5 985.28 -29.5
13:41 95 23 28 13 21.3 -16.7 985.21 -29.9
13:42 97 19 25 13 21.3 -17.4 985.07 -30.0
13:43 88 20 23 13 21.3 -16.9 985.18 -29.5
13:44 95 25 26 13 21.3 -16.8 985.14 -30.7
13:45 98 19 25 13 21.3 -17.7 985.28 -30.3
13:46 98 22 23 13 21.3 -17.0 985.34 -30.1
13:47 99 19 23 13 21.2 -17.4 985.28 -30.0
13:48 97 25 27 13 21.2 -17.2 985.14 -31.1
13:49 89 12 25 13 21.2 -17.6 985.31 -27.9
13:50 89 22 25 13 21.2 -16.9 985.28 -30.0
13:51 87 21 23 13 21.2 -17.5 985.41 -30.6
13:52 81 23 23 13 21.2 -17.6 985.38 -31.1
13:53 84 17 23 13 21.2 -16.8 985.31 -28.8
13:54 79 16 20 13 21.2 -17.2 985.34 -28.7
13:55 95 17 22 13 21.2 -17.0 985.24 -29.0
13:56 80 18 22 13 21.2 -16.9 985.31 -29.2
13:57 83 18 25 13 21.2 -17.3 985.31 -29.7
13:58 85 18 23 13 21.2 -17.4 985.28 -29.7
13:59 85 23 26 13 21.2 -17.2 985.31 -30.6
14:00 94 16 23 13 21.2 -16.8 985.38 -28.2
14:01 93 18 21 13 21.2 -16.8 985.34 -29.0
14:02 107 13 24 13 21.2 -16.6 985.34 -27.1
14:03 98 15 18 13 21.2 -16.7 985.38 -27.7
14:04 108 14 20 13 21.2 -16.3 985.38 -27.0
14:05 97 17 24 13 21.2 -16.3 985.38 -28.1
14:06 99 22 25 13 21.2 -16.6 985.41 -29.5
14:07 100 23 24 13 21.2 -17.0 985.38 -30.5
14:08 107 18 23 13 21.2 -17.3 985.34 -29.7
14:09 110 23 23 13 21.2 -16.7 985.38 -30.0
14:10 103 20 24 13 21.2 -16.7 985.31 -29.2
14:11 109 21 25 13 21.2 -17.1 985.21 -30.1
14:12 99 17 23 13 21.2 -17.1 985.28 -29.0
14:13 100 14 25 13 21.2 -17.1 985.34 -27.9
14:14 103 16 23 13 21.2 -17.4 985.31 -29.0
14:15 91 23 23 13 21.2 -17.1 985.34 -30.6
14:16 86 17 30 13 21.3 -17.1 985.34 -29.0
14:17 97 14 18 13 21.3 -17.5 985.34 -28.5
14:18 102 15 21 13 21.3 -17.1 985.45 -28.3
14:19 94 18 18 13 21.3 -17.7 985.34 -30.1
14:20 94 17 19 13 21.3 -17.2 985.38 -28.9
14:21 95 16 18 13 21.3 -17.4 985.41 -29.0
14:22 93 18 22 12 21.3 -17.3 985.38 -29.6
14:23 85 14 20 13 21.3 -17.2 985.45 -28.2
14:24 91 16 22 12 21.3 -17.3 985.45 -28.8
14:25 98 21 21 13 21.3 -17.3 985.48 -30.4
14:26 98 17 21 13 21.3 -17.3 985.48 -29.4
14:27 102 15 20 12 21.3 -16.8 985.48 -28.0
14:28 98 11 18 12 21.3 -17.7 985.51 -27.7
14:29 92 17 20 12 21.4 -17.9 985.38 -30.1
14:30 93 19 21 12 21.4 -17.7 985.41 -30.4
14:31 97 18 20 12 21.4 -18.2 985.34 -30.8
14:32 106 20 22 12 21.4 -18.4 985.24 -31.5
14:33 103 18 23 12 21.4 -18.8 985.28 -31.6
14:34 107 16 20 12 21.4 -18.0 985.34 -29.8
14:35 102 16 22 12 21.4 -18.2 985.38 -30.0
14:36 112 15 18 12 21.4 -18.2 985.45 -29.7
14:37 111 17 20 12 21.5 -18.6 985.31 -30.8
14:38 103 18 19 12 21.5 -18.2 985.28 -30.8
14:39 110 13 19 12 21.5 -18.8 985.28 -29.8
14:40 92 14 20 12 21.6 -18.4 985.31 -29.7
14:41 112 20 23 12 21.6 -18.3 985.38 -31.5
14:42 105 17 23 12 21.6 -18.6 985.41 -31.1
14:43 110 13 18 12 21.6 -18.3 985.41 -29.3
14:44 98 11 17 12 21.6 -18.6 985.38 -28.8
14:45 110 14 17 12 21.6 -18.7 985.41 -30.0
14:46 109 15 17 12 21.6 -18.4 985.38 -30.0
14:47 108 11 15 12 21.6 -18.6 985.34 -28.9
14:48 105 17 18 12 21.6 -18.3 985.24 -30.7
14:49 107 11 18 12 21.7 -18.9 985.31 -29.3
14:50 105 14 17 12 21.7 -18.5 985.31 -29.8
14:51 106 14 17 12 21.7 -18.8 985.28 -30.2
14:52 108 16 16 12 21.7 -18.4 985.34 -30.3
14:53 107 10 17 12 21.7 -18.4 985.38 -28.3
14:54 110 15 17 12 21.7 -18.3 985.31 -29.8
14:55 99 11 17 12 21.7 -18.2 985.18 -28.4
14:56 92 14 17 12 21.7 -18.4 985.14 -29.7
14:57 84 18 20 11 21.8 -18.3 985.11 -30.9
14:58 101 17 21 12 21.8 -18.1 985.07 -30.1
14:59 102 15 21 11 21.8 -17.9 985.14 -29.3
15:00 102 21 21 12 21.8 -18.6 985.14 -32.1
15:01 95 14 23 12 21.8 -18.7 985.14 -30.0
15:02 92 18 20 12 21.8 -18.3 985.11 -30.9
15:03 100 15 18 12 21.8 -18.6 985.07 -30.2
15:04 88 19 20 11 21.9 -18.5 984.97 -31.4
15:05 106 14 21 11 21.9 -18.2 985.07 -29.4
15:06 97 20 20 11 21.9 -18.2 985.04 -31.2
15:07 99 17 23 11 21.9 -18.2 984.97 -30.5
15:08 101 16 18 11 21.9 -18.7 985.01 -30.6
15:09 103 17 21 11 21.9 -17.9 985.01 -30.2
15:10 88 14 20 11 21.9 -18.1 985.04 -29.2
15:11 103 17 19 11 21.9 -18.3 985.01 -30.7
15:12 97 17 19 11 22.0 -18.1 985.01 -30.4
15:13 99 12 17 11 22.0 -18.2 985.11 -28.2
15:14 96 12 20 11 22.0 -18.5 985.14 -29.1
15:15 91 16 18 11 22.1 -18.2 985.11 -30.0
15:16 100 17 18 11 22.1 -18.2 985.11 -30.5
15:17 97 16 17 11 22.1 -18.3 985.21 -30.2
15:18 103 16 19 11 22.1 -17.9 985.24 -29.6
15:19 98 13 16 11 22.1 -18.4 985.14 -29.4
15:20 103 13 15 11 22.1 -17.8 985.07 -28.6
15:21 102 17 17 11 22.1 -17.8 985.07 -29.7
15:22 98 21 21 11 22.1 -18.2 985.14 -31.5
15:23 97 19 21 11 22.1 -18.1 985.01 -30.9
15:24 97 16 21 11 22.2 -18.6 985.11 -30.5
15:25 103 16 20 11 22.2 -18.3 985.11 -30.2
15:26 95 16 20 11 22.2 -18.5 985.11 -30.4
15:27 96 17 20 11 22.2 -18.7 985.21 -31.0
15:28 102 17 17 11 22.2 -18.0 985.14 -30.0
15:29 96 19 20 11 22.2 -17.9 985.18 -30.6
15:30 107 16 19 11 22.2 -18.5 985.21 -30.4
15:31 104 15 17 11 22.2 -18.5 985.14 -30.1
15:32 99 13 16 11 22.3 -17.9 985.07 -28.6
15:33 97 14 18 11 22.3 -17.8 985.18 -28.9
15:34 90 17 17 11 22.3 -17.7 985.18 -29.6
15:35 100 17 19 11 22.3 -17.7 985.24 -29.9
15:36 95 15 19 11 22.3 -18.2 985.24 -29.7
15:37 86 13 17 11 22.3 -17.7 985.11 -28.5
15:38 79 18 19 11 22.3 -18.2 985.07 -30.8
15:39 86 16 19 11 22.3 -18.3 985.21 -30.1
15:40 88 16 17 11 22.4 -18.0 985.18 -29.8
15:41 77 19 19 11 22.4 -17.9 985.21 -30.7
15:42 90 15 19 11 22.4 -18.5 985.34 -30.1
15:43 79 17 18 11 22.4 -18.4 985.21 -30.6
15:44 81 17 20 11 22.4 -18.3 985.24 -30.7
15:45 74 19 23 11 22.4 -18.2 985.28 -31.1
15:46 80 16 22 11 22.4 -17.7 985.31 -29.4
15:47 76 15 23 11 22.4 -18.3 985.18 -29.8
15:48 89 15 18 11 22.4 -17.4 985.18 -28.7
15:49 84 20 22 11 22.4 -17.9 985.21 -30.9
15:50 87 13 20 11 22.5 -17.7 985.18 -28.5
15:51 84 15 17 10 22.5 -17.3 984.97 -28.5
15:52 105 13 15 10 22.5 -16.3 985.04 -26.7
15:53 102 10 13 10 22.5 -16.3 985.07 -25.6
15:54 116 10 16 10 22.5 -16.8 985.04 -26.3
15:55 122 14 14 10 22.5 -16.8 985.14 -27.7
15:56 92 13 14 10 22.5 -16.9 985.14 -27.4
15:57 69 11 15 10 22.6 -17.1 985.14 -26.9
15:58 75 10 14 10 22.6 -16.6 985.21 -25.9
15:59 81 15 15 10 22.6 -17.0 985.24 -28.2
16:00 79 17 17 10 22.6 -16.8 985.24 -28.5
16:01 74 15 19 10 22.6 -16.8 985.21 -27.9
16:02 82 14 18 10 22.6 -17.3 985.34 -28.3
16:03 99 7 15 10 22.6 -17.1 985.24 -24.8
16:04 97 8 13 10 22.6 -16.4 985.28 -24.4
16:05 99 6 12 10 22.6 -17.2 985.28 -24.4
16:06 83 10 11 10 22.6 -16.9 985.41 -26.4
16:07 67 10 12 10 22.6 -16.8 985.38 -26.2
16:08 90 12 14 10 22.6 -17.2 985.34 -27.4
16:09 70 10 13 10 22.6 -17.1 985.24 -26.2
16:10 65 17 17 10 22.6 -16.7 985.24 -28.5
16:11 80 15 18 10 22.6 -16.4 985.18 -27.4
16:12 97 8 15 10 22.7 -17.3 985.28 -25.6
16:13 72 7 11 10 22.7 -17.2 985.18 -24.9
16:14 83 12 16 10 22.7 -17.1 985.18 -27.4
16:15 83 11 12 10 22.7 -16.9 985.21 -26.7
16:16 72 8 13 10 22.7 -16.7 985.24 -24.8
16:17 78 12 16 10 22.7 -17.2 985.21 -27.5
16:18 105 9 17 10 22.7 -16.7 985.14 -25.3
16:19 108 5 12 10 22.7 -17.1 985.14 -23.6
16:20 82 12 12 10 22.7 -16.7 985.07 -26.9
16:21 68 15 16 10 22.7 -16.9 985.14 -28.1
16:22 71 8 15 11 22.7 -16.4 985.07 -24.4
16:23 62 10 10 11 22.7 -17.0 985.04 -26.1
16:24 68 7 14 11 22.8 -16.8 985.07 -24.5
16:25 64 13 17 11 22.8 -16.9 985.04 -27.4
16:26 54 10 15 11 22.8 -17.1 985.14 -26.6
16:27 71 16 19 11 22.8 -17.6 985.14 -29.2
16:28 63 10 16 11 22.8 -17.4 985.14 -27.0
16:29 61 10 15 11 22.8 -17.9 985.01 -27.6
16:30 49 20 22 11 22.8 -17.9 984.97 -30.9
16:31 45 16 20 11 22.8 -18.2 985.01 -30.0
16:32 49 25 25 11 22.8 -18.4 985.11 -32.9
16:33 48 27 27 11 22.8 -18.6 985.01 -33.5
16:34 50 10 27 11 22.8 -18.8 985.07 -28.7
16:35 54 17 18 11 22.8 -18.6 984.90 -30.8
16:36 44 20 23 11 22.8 -18.6 984.90 -31.8
16:37 56 18 25 11 22.8 -18.9 984.84 -31.7
16:38 45 21 31 11 22.8 -18.7 984.70 -32.1
16:39 45 28 32 11 22.8 -19.1 984.87 -34.2
16:40 53 23 28 11 22.8 -18.9 984.74 -33.1
16:41 59 16 23 11 22.8 -19.1 984.70 -31.1
16:42 43 17 23 11 22.8 -18.9 984.84 -31.5
16:43 53 22 23 11 22.8 -18.7 984.90 -32.4
16:44 53 19 24 11 22.8 -18.7 984.94 -31.7
16:45 47 13 23 11 22.8 -19.3 984.84 -30.5
16:46 50 23 29 11 22.8 -19.1 984.80 -33.2
16:47 59 15 27 11 22.8 -19.4 984.84 -31.3
16:48 64 20 25 11 22.8 -19.3 984.84 -32.8
16:49 48 20 26 11 22.8 -18.9 984.74 -32.3
16:50 50 20 28 11 22.8 -19.3 984.77 -32.8
16:51 55 24 30 11 22.8 -19.0 984.80 -33.4
16:52 54 26 30 11 22.8 -19.5 984.70 -34.5
16:53 56 27 30 11 22.8 -19.4 984.84 -34.6
16:54 47 25 31 11 22.8 -19.9 984.67 -34.8
16:55 49 24 32 11 22.8 -19.6 984.77 -34.2
16:56 53 24 28 11 22.8 -19.7 984.84 -34.4
16:57 49 30 31 11 22.8 -19.5 984.60 -35.2
16:58 52 20 35 11 22.8 -19.5 984.77 -33.0
16:59 50 33 36 11 22.8 -19.9 984.77 -36.5
17:00 45 19 35 11 22.8 -19.5 984.87 -32.8
17:01 48 31 35 11 22.7 -19.8 984.74 -36.0
17:02 50 27 31 11 22.7 -20.2 984.74 -35.6
17:03 51 30 32 11 22.7 -19.9 984.67 -35.7
17:04 53 26 32 11 22.7 -20.1 984.90 -35.3
17:05 46 24 30 11 22.7 -19.8 984.74 -34.5
17:06 50 29 34 11 22.7 -19.9 984.87 -35.6
17:07 53 23 32 10 22.7 -19.9 984.87 -34.2
17:08 46 27 33 11 22.7 -19.5 984.70 -34.7
17:09 54 16 32 10 22.7 -19.9 984.84 -32.3
17:10 55 27 27 10 22.7 -19.6 984.84 -34.7
17:11 49 30 30 10 22.7 -19.7 984.80 -35.4
17:12 46 30 34 10 22.7 -19.9 984.67 -35.7
17:13 48 24 34 10 22.7 -20.3 984.80 -35.1
17:14 55 31 36 10 22.7 -19.9 984.67 -36.1
17:15 51 28 32 10 22.7 -20.1 984.67 -35.7
17:16 48 36 36 10 22.7 -20.1 984.90 -37.2
17:17 52 23 36 10 22.7 -19.9 984.80 -34.4
17:18 52 33 36 10 22.7 -20.3 984.74 -36.9
17:19 52 26 35 10 22.6 -19.8 984.80 -34.9
17:20 52 35 35 10 22.6 -20.4 984.87 -37.4
17:21 50 30 35 10 22.6 -19.8 984.80 -35.8
17:22 49 31 35 10 22.6 -20.5 984.70 -36.9
17:23 52 29 36 10 22.6 -19.9 984.80 -35.6
17:24 50 28 31 10 22.6 -20.2 984.67 -35.8
17:25 50 19 28 10 22.6 -19.9 984.74 -33.3
17:26 49 28 32 10 22.5 -19.7 984.63 -35.1
17:27 51 23 33 10 22.5 -19.8 984.67 -34.1
17:28 52 30 36 10 22.5 -19.9 984.70 -35.9
17:29 54 23 31 10 22.4 -20.2 984.70 -34.9
17:30 56 26 32 10 22.4 -20.7 984.80 -36.1
17:31 51 21 27 10 22.4 -20.2 984.94 -34.2
17:32 50 36 36 10 22.4 -20.4 984.80 -37.8
17:33 49 28 36 10 22.4 -20.4 985.01 -36.1
17:34 51 18 33 10 22.4 -20.3 985.01 -33.5
17:35 48 25 36 10 22.3 -20.1 984.87 -35.1
17:36 52 17 35 10 22.3 -20.1 984.84 -32.8
17:37 59 17 29 10 22.3 -20.4 984.97 -33.5
17:38 50 27 34 10 22.3 -20.3 985.04 -35.7
17:39 65 20 36 10 22.3 -21.0 985.04 -35.0
17:40 69 23 31 10 22.3 -20.4 984.94 -35.2
17:41 62 18 30 10 22.2 -20.8 984.94 -34.2
17:42 54 24 34 10 22.2 -20.3 984.87 -35.1
17:43 69 24 30 10 22.2 -21.0 985.21 -36.1
17:44 63 15 30 10 22.2 -20.9 985.01 -33.2
17:45 60 28 28 10 22.2 -20.4 984.87 -36.1
17:46 55 18 33 10 22.2 -20.9 985.21 -34.3
17:47 66 25 28 10 22.1 -20.7 985.21 -35.9
17:48 57 21 30 10 22.1 -20.5 985.31 -34.6
17:49 66 27 36 10 22.1 -20.6 985.11 -36.2
17:50 65 31 36 10 22.1 -21.0 985.11 -37.6
17:51 65 27 37 10 22.1 -21.3 985.14 -37.2
17:52 65 30 40 10 22.1 -20.8 985.11 -37.0
17:53 67 30 38 10 22.1 -20.9 985.14 -37.1
17:54 66 31 33 10 22.0 -21.1 985.04 -37.8
17:55 71 24 36 10 22.0 -20.9 985.45 -36.0
17:56 78 24 32 10 22.0 -21.1 985.38 -36.2
17:57 64 21 35 10 22.0 -21.3 985.34 -35.7
17:58 68 34 38 11 21.9 -21.1 985.28 -38.2
17:59 65 28 34 10 21.9 -21.0 985.41 -36.9
18:00 67 26 35 10 21.9 -21.4 985.51 -37.1
18:01 76 23 34 10 21.9 -21.3 985.48 -36.1
18:02 73 27 31 10 21.9 -21.3 985.51 -37.1
18:03 78 32 32 10 21.9 -21.3 985.41 -38.2
18:04 80 23 32 10 21.9 -21.1 985.51 -35.8
18:05 73 24 32 10 21.8 -20.8 985.58 -35.9
18:06 64 26 28 10 21.8 -20.7 985.62 -36.1
18:07 64 23 30 10 21.8 -21.2 985.58 -36.2
18:08 69 20 30 10 21.8 -21.3 985.55 -35.4
18:09 68 32 32 10 21.8 -20.9 985.65 -37.6
18:10 71 29 32 10 21.7 -20.9 985.58 -36.9
18:11 68 20 29 10 21.7 -21.1 985.65 -35.1
18:12 85 29 29 10 21.7 -21.1 985.89 -37.2
18:13 71 17 29 10 21.7 -20.9 985.82 -34.1
18:14 64 19 29 10 21.7 -21.2 985.75 -35.0
18:15 80 20 30 10 21.7 -20.7 986.02 -34.6
18:16 75 25 25 10 21.7 -20.8 985.89 -36.0
18:17 71 24 28 10 21.6 -21.0 985.95 -36.1
18:18 70 23 26 10 21.6 -20.9 985.79 -35.8
18:19 67 25 27 10 21.6 -21.1 985.85 -36.4
18:20 70 23 28 10 21.6 -21.0 985.79 -35.7
18:21 69 24 27 10 21.6 -20.8 985.68 -35.8
18:22 82 20 25 10 21.6 -20.9 985.75 -34.9
18:23 88 22 26 10 21.5 -20.7 985.58 -35.1
18:24 84 27 30 10 21.5 -20.7 985.62 -36.3
18:25 86 21 28 10 21.5 -21.1 985.75 -35.3
18:26 78 17 23 10 21.5 -20.7 985.62 -33.9
18:27 72 22 24 10 21.4 -20.7 985.68 -35.1
18:28 67 18 26 10 21.4 -20.8 985.65 -34.2
18:29 63 17 27 10 21.4 -20.5 985.62 -33.3
18:30 76 18 30 10 21.4 -20.7 985.65 -34.1
18:31 68 29 30 10 21.4 -21.2 985.68 -37.3
18:32 75 23 29 10 21.4 -20.7 985.72 -35.5
18:33 74 27 29 10 21.4 -20.9 985.75 -36.6
18:34 75 21 27 10 21.3 -20.9 985.79 -35.2
18:35 79 20 30 10 21.3 -20.9 985.85 -34.9
18:36 77 25 29 10 21.3 -20.6 985.85 -35.7
18:37 71 20 25 10 21.3 -21.1 985.85 -35.1
18:38 70 28 30 11 21.3 -20.7 985.82 -36.5
18:39 75 16 28 11 21.3 -20.5 985.75 -33.0
18:40 83 17 28 11 21.3 -20.6 985.75 -33.6
18:41 80 21 24 10 21.2 -20.9 985.72 -35.1
18:42 74 18 23 11 21.2 -20.8 985.79 -34.3
18:43 85 21 25 11 21.2 -20.8 985.89 -34.9
18:44 85 23 25 11 21.2 -21.3 985.89 -36.3
18:45 68 19 23 11 21.2 -20.9 985.82 -34.7
18:46 80 22 25 11 21.2 -21.0 985.75 -35.5
18:47 84 16 27 10 21.2 -20.8 985.75 -33.4
18:48 67 16 23 10 21.2 -20.7 985.79 -33.2
18:49 76 20 27 10 21.2 -20.5 985.75 -34.3
18:50 64 13 26 10 21.1 -20.8 985.79 -32.5
18:51 70 23 27 10 21.1 -20.5 985.65 -35.2
18:52 74 20 23 10 21.1 -20.4 985.62 -34.3
18:53 66 22 23 10 21.1 -20.8 985.65 -35.2
18:54 67 15 28 10 21.1 -20.5 985.68 -32.7
18:55 57 19 24 10 21.1 -20.7 985.72 -34.4
18:56 72 17 23 10 21.1 -21.1 985.75 -34.1
18:57 60 23 29 10 21.1 -20.6 985.65 -35.1
18:58 67 19 27 10 21.1 -20.7 985.62 -34.3
18:59 68 15 28 10 21.1 -20.6 985.65 -32.8
19:00 71 24 27 10 21.1 -20.9 985.65 -36.0
19:01 70 24 25 10 21.1 -21.2 985.68 -36.3
19:02 64 30 30 10 21.1 -20.7 985.62 -36.8
19:03 80 25 30 10 21.1 -21.3 985.65 -36.7
19:04 74 25 31 10 21.1 -20.8 985.55 -36.0
19:05 82 23 27 10 21.1 -21.1 985.51 -35.8
19:06 68 26 30 9 21.1 -21.4 985.45 -37.1
19:07 74 22 27 10 21.1 -21.1 985.48 -35.5
19:08 74 22 26 9 21.1 -21.4 985.48 -36.0
19:09 73 23 31 10 21.1 -20.8 985.41 -35.5
19:10 75 23 26 10 21.1 -21.3 985.51 -36.3
19:11 69 30 30 9 21.1 -21.1 985.38 -37.3
19:12 68 20 30 9 21.1 -21.0 985.41 -35.0
19:13 73 21 31 9 21.1 -21.3 985.68 -35.6
19:14 74 24 27 9 21.1 -21.1 985.72 -36.2
19:15 67 23 30 9 21.1 -21.2 985.65 -36.1
19:16 71 23 30 9 21.1 -20.7 985.62 -35.5
19:17 76 16 29 9 21.1 -21.2 985.75 -33.9
19:18 72 19 24 9 21.1 -21.1 985.68 -34.9
19:19 75 29 29 9 21.1 -21.2 985.65 -37.4
19:20 72 26 29 9 21.1 -20.9 985.62 -36.4
19:21 73 25 31 9 21.1 -21.2 985.55 -36.6
19:22 72 26 28 9 21.1 -21.3 985.51 -37.0
19:23 70 17 26 9 21.1 -21.4 985.62 -34.8
19:24 74 23 24 9 21.1 -20.8 985.65 -35.7
19:25 74 21 25 9 21.1 -20.9 985.68 -35.2
19:26 72 22 24 9 21.1 -21.2 985.68 -35.8
19:27 67 18 23 9 21.2 -21.2 985.62 -34.7
19:28 76 17 20 9 21.2 -20.8 985.75 -34.0
19:29 71 23 26 9 21.2 -21.2 985.72 -35.9
19:30 68 30 30 9 21.2 -21.1 985.82 -37.3
19:31 81 18 30 9 21.2 -20.7 985.75 -34.1
19:32 70 25 27 9 21.2 -21.1 985.62 -36.5
19:33 70 28 29 9 21.2 -20.8 985.65 -36.7
19:34 68 22 28 9 21.2 -20.7 985.68 -35.0
19:35 72 20 29 9 21.2 -21.5 985.75 -35.7
19:36 69 27 29 9 21.2 -21.1 985.79 -36.8
19:37 72 20 31 9 21.2 -21.1 985.82 -35.1
19:38 66 17 24 9 21.2 -20.7 985.82 -33.8
19:39 78 19 24 9 21.3 -21.1 985.68 -34.9
19:40 68 24 25 9 21.3 -20.7 985.75 -35.7
19:41 63 21 24 9 21.3 -21.1 985.72 -35.3
19:42 65 22 22 9 21.3 -21.1 985.72 -35.5
19:43 72 23 28 9 21.3 -21.2 985.65 -36.2
19:44 72 18 23 9 21.3 -20.4 985.79 -33.8
19:45 69 21 29 9 21.3 -20.5 985.82 -34.6
19:46 59 10 26 9 21.3 -21.1 985.82 -31.2
19:47 62 17 21 9 21.3 -21.1 985.75 -34.3
19:48 63 14 26 9 21.3 -21.1 985.82 -33.2
19:49 49 22 22 9 21.4 -20.9 985.95 -35.4
19:50 54 18 26 9 21.4 -21.2 986.02 -34.8
19:51 53 9 23 9 21.4 -21.7 985.92 -31.5
19:52 53 13 25 9 21.4 -21.3 985.82 -33.0
19:53 56 23 27 8 21.4 -20.9 985.95 -35.8
19:54 60 20 25 8 21.4 -21.1 985.79 -35.1
19:55 56 23 23 8 21.4 -21.3 985.85 -36.4
19:56 62 28 28 8 21.4 -21.1 985.92 -37.1
19:57 67 24 29 8 21.4 -21.4 985.92 -36.6
19:58 62 10 27 8 21.4 -21.2 985.92 -31.8
19:59 53 19 19 8 21.4 -21.3 985.85 -35.1
20:00 55 15 21 8 21.5 -20.9 985.89 -33.3
20:01 73 15 22 8 21.5 -21.3 985.95 -33.8
20:02 65 19 25 8 21.5 -21.3 985.89 -35.1
20:03 66 14 25 8 21.5 -21.8 985.89 -34.0
20:04 73 19 22 8 21.6 -21.6 985.89 -35.6
20:05 68 17 24 8 21.6 -21.4 985.99 -34.8
20:06 66 27 30 8 21.6 -21.2 985.99 -37.0
20:07 64 25 29 8 21.6 -21.5 986.02 -37.0
20:08 51 16 26 8 21.6 -21.3 986.06 -34.0
20:09 69 23 28 8 21.6 -21.4 985.95 -36.4
20:10 62 19 24 8 21.6 -21.4 985.79 -35.3
20:11 69 19 25 8 21.6 -21.1 985.75 -34.8
20:12 63 23 30 8 21.6 -21.2 985.79 -35.9
20:13 71 24 26 8 21.7 -21.4 985.75 -36.6
20:14 72 18 24 8 21.7 -21.0 985.75 -34.5
20:15 71 23 27 8 21.7 -21.5 985.89 -36.6
20:16 66 16 26 8 21.7 -21.6 985.85 -34.4
20:17 72 23 26 8 21.7 -21.4 986.02 -36.3
20:18 67 23 28 8 21.7 -21.0 985.92 -35.7
20:19 66 17 28 8 21.7 -21.5 986.06 -34.9
20:20 66 23 24 8 21.7 -21.6 986.06 -36.5
20:21 64 18 25 8 21.7 -21.6 986.16 -35.3
20:22 68 16 23 8 21.8 -21.3 986.19 -34.0
20:23 68 16 27 8 21.8 -21.4 986.19 -34.2
20:24 69 25 25 8 21.8 -21.6 986.06 -37.1
20:25 65 17 25 8 21.8 -21.5 986.12 -34.9
20:26 57 17 22 8 21.8 -21.4 986.23 -34.5
20:27 55 8 22 8 21.8 -21.7 986.23 -30.9
20:28 66 21 26 8 21.8 -21.8 986.26 -36.4
20:29 66 19 25 8 21.8 -21.6 986.33 -35.6
20:30 78 16 22 8 21.8 -21.9 986.26 -34.9
20:31 92 17 22 8 21.8 -21.8 986.23 -35.2
20:32 93 18 27 7 21.8 -21.8 986.09 -35.6
20:33 97 20 30 8 21.9 -21.8 986.19 -36.0
20:34 81 17 28 8 21.9 -21.5 986.29 -34.6
20:35 67 21 23 8 21.9 -21.4 986.36 -35.8
20:36 66 17 21 8 21.9 -21.4 986.43 -34.5
20:37 65 18 22 7 21.9 -22.1 986.33 -35.9
20:38 66 18 18 7 21.9 -21.8 986.29 -35.6
20:39 62 26 26 8 21.9 -21.5 986.39 -37.2
20:40 63 8 26 8 21.9 -21.4 986.33 -30.7
20:41 70 11 19 7 21.9 -21.4 986.39 -32.5
20:42 69 17 17 8 21.9 -21.7 986.50 -34.9
20:43 59 15 20 8 21.9 -21.9 986.39 -34.5
20:44 56 25 27 8 21.9 -21.8 986.36 -37.4
20:45 64 18 25 7 22.0 -21.3 986.53 -34.9
20:46 65 16 23 7 22.0 -21.3 986.50 -34.0
20:47 70 24 24 8 22.0 -21.3 986.50 -36.6
20:48 67 17 24 7 22.0 -21.3 986.46 -34.3
20:49 66 23 26 7 22.0 -21.6 986.50 -36.7
20:50 59 13 25 8 22.1 -21.8 986.46 -33.7
20:51 70 24 24 8 22.1 -21.7 986.46 -37.1
20:52 57 23 24 8 22.1 -21.5 986.53 -36.4
20:53 66 18 25 7 22.1 -21.7 986.39 -35.4
20:54 72 15 24 7 22.1 -21.4 986.53 -33.8
20:55 67 18 22 8 22.1 -20.9 986.56 -34.3
20:56 63 18 22 8 22.1 -21.3 986.46 -34.9
20:57 76 15 19 7 22.1 -20.9 986.50 -33.3
20:58 67 22 32 8 22.1 -21.7 986.33 -36.4
20:59 70 16 26 8 22.1 -20.9 986.39 -33.5
21:00 62 18 27 8 22.1 -21.6 986.39 -35.3
21:01 72 22 25 8 22.1 -20.8 986.43 -35.2
21:02 63 22 26 7 22.1 -21.0 986.39 -35.5
21:03 69 17 23 8 22.1 -20.9 986.39 -34.2
21:04 74 23 25 7 22.1 -21.4 986.29 -36.2
21:05 67 26 28 8 22.1 -21.3 986.39 -37.0
21:06 66 17 26 8 22.1 -21.6 986.23 -35.0
21:07 71 22 24 8 22.2 -20.9 986.26 -35.4
21:08 69 21 28 8 22.1 -21.2 986.33 -35.5
21:09 66 23 25 8 22.2 -21.3 986.46 -36.4
21:10 58 22 23 8 22.2 -20.9 986.29 -35.4
21:11 70 15 22 8 22.2 -21.4 986.29 -33.9
21:12 68 23 27 8 22.2 -21.0 986.29 -35.9
21:13 59 9 23 8 22.2 -21.4 986.33 -31.2
21:14 73 15 23 8 22.2 -20.7 986.43 -33.0
21:15 75 19 24 8 22.2 -21.0 986.46 -34.8
21:16 65 15 19 8 22.2 -21.3 986.46 -33.8
21:17 66 13 21 7 22.2 -21.1 986.50 -32.8
21:18 61 17 20 8 22.2 -21.4 986.53 -34.5
21:19 60 11 17 7 22.2 -21.3 986.29 -32.3
21:20 68 17 24 8 22.2 -21.2 986.36 -34.2
21:21 62 10 21 7 22.2 -21.2 986.36 -31.3
21:22 72 12 20 8 22.2 -21.3 986.46 -32.7
21:23 67 16 19 7 22.2 -21.3 986.50 -34.1
21:24 61 8 17 7 22.2 -21.7 986.46 -31.0
21:25 68 19 24 7 22.3 -21.1 986.43 -34.8
21:26 64 10 19 7 22.2 -21.6 986.39 -32.2
21:27 64 17 22 7 22.3 -21.5 986.43 -34.9
21:28 63 12 17 7 22.3 -21.3 986.43 -32.7
21:29 77 17 20 8 22.3 -21.2 986.39 -34.2
21:30 64 17 17 7 22.3 -21.2 986.46 -34.2
21:31 62 10 20 7 22.3 -21.2 986.43 -31.4
21:32 67 12 26 7 22.3 -21.4 986.46 -32.8
21:33 69 19 23 7 22.3 -21.6 986.50 -35.5
21:34 69 17 24 7 22.3 -21.7 986.53 -34.8
21:35 76 17 23 7 22.3 -21.2 986.53 -34.2
21:36 72 18 24 8 22.3 -21.4 986.63 -35.1
21:37 79 15 19 7 22.3 -21.6 986.77 -34.1
21:38 71 13 21 7 22.3 -21.6 986.77 -33.5
21:39 70 20 23 7 22.3 -21.2 986.87 -35.2
21:40 71 14 23 7 22.3 -21.2 986.84 -33.2
21:41 80 17 20 7 22.3 -21.4 986.80 -34.5
21:42 75 16 21 7 22.3 -21.2 986.77 -33.9
21:43 79 15 23 7 22.3 -21.6 986.87 -34.1
21:44 80 18 23 7 22.3 -21.7 986.87 -35.4
21:45 75 20 23 7 22.3 -21.2 986.87 -35.3
21:46 73 21 21 8 22.3 -21.7 986.94 -36.2
21:47 70 21 24 7 22.3 -21.1 986.84 -35.4
21:48 71 18 24 7 22.3 -21.6 986.87 -35.3
21:49 71 16 23 7 22.3 -21.1 986.90 -33.7
21:50 79 17 20 7 22.3 -21.7 986.87 -35.2
21:51 75 17 23 7 22.3 -21.4 986.84 -34.8
21:52 86 12 20 7 22.3 -21.5 986.80 -33.0
21:53 84 13 19 7 22.3 -21.4 986.80 -33.3
21:54 85 17 21 7 22.3 -21.5 986.87 -34.6
21:55 82 23 23 7 22.3 -21.3 986.97 -36.1
21:56 78 19 24 7 22.3 -21.7 986.94 -35.7
21:57 75 17 19 7 22.3 -21.7 986.97 -35.2
21:58 70 18 21 7 22.3 -21.5 986.90 -35.2
21:59 62 18 20 7 22.3 -21.8 986.84 -35.5
22:00 73 16 24 7 22.3 -21.8 986.84 -34.7
22:01 69 12 20 7 22.3 -21.4 986.87 -32.9
22:02 67 18 20 7 22.3 -21.7 986.87 -35.4
22:03 75 17 20 7 22.3 -21.4 986.84 -34.7
22:04 76 21 23 7 22.3 -21.3 986.80 -35.6
22:05 67 23 26 7 22.3 -21.6 986.84 -36.7
22:06 64 19 24 7 22.3 -21.6 986.73 -35.6
22:07 66 12 19 7 22.3 -21.9 986.80 -33.5
22:08 71 23 23 7 22.3 -21.9 986.77 -36.9
22:09 67 25 26 7 22.3 -21.6 986.84 -37.2
22:10 68 19 25 7 22.3 -21.6 986.87 -35.5
22:11 73 18 25 7 22.3 -21.7 986.90 -35.4
22:12 65 14 23 7 22.3 -21.9 986.87 -34.2
22:13 72 21 21 7 22.3 -22.0 986.90 -36.6
22:14 68 17 23 7 22.3 -21.7 986.90 -35.1
22:15 64 17 26 7 22.3 -21.8 986.90 -35.2
22:16 67 20 25 7 22.3 -21.6 986.87 -35.8
22:17 62 20 24 7 22.3 -21.8 986.87 -36.1
22:18 69 16 26 7 22.3 -21.6 986.87 -34.4
22:19 69 22 23 7 22.3 -21.8 986.84 -36.6
22:20 76 18 25 7 22.3 -21.9 986.90 -35.7
22:21 70 19 27 7 22.3 -21.6 986.87 -35.6
22:22 70 22 22 7 22.3 -21.8 986.84 -36.5
22:23 72 20 23 7 22.3 -22.4 986.90 -36.8
22:24 71 22 23 7 22.3 -22.1 986.87 -37.0
22:25 72 21 26 7 22.2 -21.8 986.84 -36.4
22:26 71 19 26 7 22.2 -21.7 986.87 -35.7
22:27 64 21 23 7 22.2 -22.1 986.97 -36.6
22:28 64 17 24 7 22.2 -21.8 987.00 -35.0
22:29 67 25 25 7 22.2 -22.4 986.87 -38.3
22:30 78 17 25 7 22.2 -22.2 986.90 -35.8
22:31 71 23 25 7 22.2 -22.4 986.87 -37.6
22:32 65 11 23 7 22.2 -22.0 986.97 -33.2
22:33 71 22 26 7 22.2 -22.6 986.97 -37.6
22:34 75 17 23 7 22.2 -22.4 986.90 -35.8
22:35 64 12 18 7 22.2 -22.2 986.94 -33.8
22:36 68 17 28 7 22.2 -22.2 986.97 -35.8
22:37 68 17 19 7 22.1 -22.3 986.97 -35.6
22:38 56 11 20 7 22.1 -22.6 987.00 -34.0
22:39 55 10 25 7 22.1 -22.7 986.97 -33.7
22:40 70 13 20 8 22.1 -22.4 987.00 -34.5
22:41 81 18 21 7 22.1 -22.2 987.11 -36.1
22:42 80 18 22 8 22.1 -22.5 987.07 -36.5
22:43 88 15 18 8 22.1 -22.2 987.07 -34.9
22:44 69 11 15 8 22.1 -22.2 987.04 -33.5
22:45 84 16 18 8 22.1 -22.3 987.04 -35.3
22:46 81 16 17 8 22.1 -22.8 987.14 -36.0
22:47 80 17 19 8 22.0 -22.7 987.14 -36.4
22:48 67 13 22 8 22.0 -22.4 987.11 -34.5
22:49 62 16 22 8 22.0 -22.9 987.17 -36.1
22:50 72 11 21 8 21.9 -22.6 987.34 -33.9
22:51 85 11 15 8 21.9 -22.9 987.34 -34.3
22:52 71 20 20 8 21.9 -22.6 987.31 -37.1
22:53 84 13 20 8 21.9 -22.7 987.48 -34.8
22:54 70 11 19 9 21.9 -22.8 987.41 -34.2
22:55 77 19 23 9 21.9 -22.4 987.44 -36.6
22:56 82 14 19 9 21.9 -22.6 987.28 -35.0
22:57 81 14 20 9 21.8 -22.7 987.28 -35.2
22:58 77 17 21 9 21.8 -22.9 987.21 -36.4
22:59 69 22 27 9 21.8 -22.7 987.24 -37.7
23:00 69 26 26 9 21.8 -22.3 987.31 -38.3
23:01 66 23 26 9 21.8 -22.7 987.28 -38.2
23:02 67 23 28 9 21.8 -22.7 987.21 -38.2
23:03 71 23 28 9 21.8 -22.7 987.21 -37.9
23:04 71 24 24 9 21.8 -22.2 987.34 -37.8
23:05 69 23 28 9 21.7 -22.3 987.28 -37.5
23:06 81 18 23 9 21.7 -22.5 987.44 -36.5
23:07 80 20 22 9 21.7 -22.6 987.41 -37.1
23:08 78 20 23 9 21.7 -22.7 987.55 -37.2
23:09 83 25 25 9 21.7 -22.7 987.58 -38.6
23:10 81 19 26 9 21.7 -22.6 987.58 -36.9
23:11 80 18 25 9 21.7 -22.8 987.55 -36.9
23:12 75 23 25 9 21.6 -22.7 987.48 -37.9
23:13 72 17 26 9 21.6 -22.8 987.44 -36.6
23:14 71 23 27 9 21.6 -22.9 987.38 -38.2
23:15 73 23 27 9 21.6 -23.3 987.34 -38.8
23:16 72 25 25 9 21.6 -22.8 987.48 -38.7
23:17 69 15 25 9 21.6 -22.9 987.44 -35.8
23:18 59 17 24 9 21.6 -22.9 987.38 -36.8
23:19 60 20 21 9 21.5 -22.8 987.41 -37.4
23:20 67 23 23 9 21.5 -22.9 987.38 -38.5
23:21 54 23 24 9 21.4 -22.9 987.34 -38.5
23:22 60 19 23 9 21.4 -23.3 987.44 -37.8
23:23 56 15 21 9 21.4 -22.9 987.51 -35.8
23:24 62 17 25 9 21.4 -23.1 987.41 -37.0
23:25 74 26 26 9 21.4 -23.3 987.44 -39.7
23:26 81 22 26 9 21.4 -23.1 987.41 -38.2
23:27 67 14 25 9 21.4 -23.2 987.38 -35.8
23:28 70 15 25 9 21.4 -22.9 987.41 -35.9
23:29 65 17 23 9 21.3 -23.1 987.31 -37.0
23:30 76 20 24 9 21.3 -23.0 987.38 -37.7
23:31 64 26 28 9 21.3 -22.9 987.31 -39.2
23:32 68 23 28 9 21.3 -23.1 987.55 -38.5
23:33 71 16 29 9 21.3 -23.3 987.48 -36.6
23:34 78 23 29 9 21.3 -23.5 987.48 -39.0
23:35 61 16 23 9 21.3 -22.8 987.55 -36.0
23:36 85 23 26 9 21.2 -23.1 987.48 -38.7
23:37 82 14 23 9 21.2 -23.2 987.58 -35.8
23:38 95 14 23 9 21.2 -22.9 987.51 -35.5
23:39 102 19 19 9 21.2 -22.8 987.34 -37.1
23:40 59 17 26 9 21.2 -23.0 987.34 -36.6
23:41 67 23 27 9 21.2 -22.8 987.34 -38.4
23:42 82 21 23 9 21.2 -22.9 987.38 -37.8
23:43 75 23 27 9 21.1 -22.8 987.34 -38.3
23:44 60 10 23 9 21.1 -23.0 987.31 -33.6
23:45 93 17 22 9 21.1 -23.2 987.44 -37.1
23:46 74 17 26 9 21.1 -23.1 987.38 -36.6
23:47 64 24 24 9 21.1 -23.4 987.38 -39.3
23:48 65 21 24 9 21.1 -23.4 987.28 -38.5
23:49 52 12 28 9 21.1 -23.3 987.28 -35.3
23:50 65 26 27 9 21.1 -23.1 987.31 -39.4
23:51 78 25 30 9 21.0 -23.1 987.41 -39.1
23:52 70 23 27 9 21.0 -22.9 987.38 -38.5
23:53 77 17 24 9 21.0 -22.8 987.38 -36.6
23:54 79 23 23 9 21.0 -22.9 987.31 -38.5
23:55 71 18 23 9 21.0 -22.8 987.38 -36.9
23:56 62 23 25 9 20.9 -23.1 987.31 -38.5
23:57 112 19 23 9 20.9 -23.0 987.44 -37.4
23:58 98 17 23 9 20.9 -23.2 987.44 -37.1
23:59 71 18 22 9 20.9 -22.9 987.38 -37.0


